Another Hard Day at the Office Weather Stats

 
 
 

High monthly outside Temperature, 30.6 , C
Low monthly outside Temperature, 13.2 , C
High yearly outside Temperature, 30.9 , C
Low yearly outside Temperature, -2.2 , C

Low monthly barometer, 1009.5 , mb
High monthly barometer, 1024.9 , mb
Low yearly barometer, 975.0 , mb
High yearly barometer 1041.1 , mb

High wind speed, 7.0 , mph
Time of High wind speed, 6:52 , mph
High monthly wind speed, 24.0 , mph
High yearly wind speed, 55.0 , mph

 

 




3125
                    Temp     Hi    Low   Out    Dew  Wind  Wind   Wind    Hi    Hi   Wind   Heat    THW                Rain    Heat    Cool    In     In    In     In     In   In Air  Wind  Wind    ISS   Arc.
  Date    Time     Out   Temp   Temp   Hum    Pt. Speed   Dir    Run Speed   Dir  Chill  Index  Index   Bar    Rain  Rate    D-D     D-D    Temp   Hum    Dew   Heat    EMC Density  Samp   Tx   Recept  Int.
---------------------------------------------------------------------------------------------------------------------------------------------------------------------------------------------------------------
 4/07/15   0:05   20.9   20.9   20.9    77   16.7   6.0    NE   0.50  11.0   NNE   20.9   21.4   21.4  1013.7  0.00   0.0   0.000   0.009   26.4    55   16.6   26.7   9.87 1.1576    116    1    100.0    5 
 4/07/15   0:10   20.9   20.9   20.9    78   16.9   5.0   NNE   0.42  10.0    NE   20.9   21.5   21.5  1013.7  0.00   0.0   0.000   0.009   26.4    55   16.6   26.7   9.87 1.1575    117    1    100.0    5 
 4/07/15   0:15   20.9   20.9   20.9    78   16.9   6.0   NNE   0.50  10.0    NE   20.9   21.5   21.5  1013.7  0.00   0.0   0.000   0.009   26.3    55   16.6   26.7   9.87 1.1578    117    1    100.0    5 
 4/07/15   0:20   20.9   20.9   20.9    78   16.9   6.0   NNE   0.50  11.0     N   20.9   21.5   21.5  1013.6  0.00   0.0   0.000   0.009   26.3    56   16.8   26.7  10.08 1.1577    117    1    100.0    5 
 4/07/15   0:25   20.8   20.9   20.8    78   16.9   6.0    NE   0.50  10.0    NE   20.8   21.4   21.4  1013.7  0.00   0.0   0.000   0.009   26.3    56   16.8   26.7  10.08 1.1577    115    1    100.0    5 
 4/07/15   0:30   20.9   20.9   20.8    79   17.1   5.0    NE   0.42  10.0    NE   20.9   21.6   21.6  1013.7  0.00   0.0   0.000   0.009   26.2    57   17.0   26.7  10.18 1.1577    117    1    100.0    5 
 4/07/15   0:35   20.9   20.9   20.9    79   17.1   5.0    NE   0.42  10.0   ENE   20.9   21.6   21.6  1013.7  0.00   0.0   0.000   0.009   26.2    57   17.0   26.6  10.19 1.1580    118    1    100.0    5 
 4/07/15   0:40   20.9   20.9   20.9    79   17.1   3.0     N   0.25   6.0   NNE   20.9   21.6   21.6  1014.0  0.00   0.0   0.000   0.009   26.1    57   16.9   26.6  10.19 1.1586    117    1    100.0    5 
 4/07/15   0:45   20.9   20.9   20.9    79   17.1   4.0   NNE   0.33   7.0    NE   20.9   21.6   21.6  1014.1  0.00   0.0   0.000   0.009   26.1    57   16.9   26.6  10.19 1.1587    117    1    100.0    5 
 4/07/15   0:50   20.8   20.9   20.8    79   17.1   4.0   NNE   0.33   8.0   NNE   20.8   21.5   21.5  1014.1  0.00   0.0   0.000   0.009   26.1    58   17.2   26.6  10.39 1.1583    117    1    100.0    5 
 4/07/15   0:55   20.8   20.8   20.8    79   17.1   4.0    NE   0.33   8.0    NE   20.8   21.5   21.5  1014.1  0.00   0.0   0.000   0.009   26.1    58   17.1   26.6  10.39 1.1585    117    1    100.0    5 
 4/07/15   1:00   20.8   20.8   20.8    80   17.3   3.0    NE   0.25   5.0    NE   20.8   21.6   21.6  1014.0  0.00   0.0   0.000   0.009   26.1    58   17.1   26.6  10.39 1.1585    117    1    100.0    5 
 4/07/15   1:05   20.8   20.8   20.8    80   17.2   2.0   NNE   0.17   5.0    NE   20.8   21.5   21.5  1013.9  0.00   0.0   0.000   0.008   26.1    58   17.1   26.6  10.39 1.1583    116    1    100.0    5 
 4/07/15   1:10   20.8   20.8   20.8    80   17.2   3.0   NNE   0.25   5.0   NNE   20.8   21.5   21.5  1013.8  0.00   0.0   0.000   0.008   26.0    58   17.1   26.5  10.40 1.1585    117    1    100.0    5 
 4/07/15   1:15   20.7   20.8   20.7    80   17.1   4.0   NNE   0.33   7.0    NE   20.7   21.5   21.5  1013.6  0.00   0.0   0.000   0.008   26.1    58   17.1   26.6  10.39 1.1580    116    1    100.0    5 
 4/07/15   1:20   20.6   20.7   20.6    80   17.0   3.0   NNE   0.25   5.0    NE   20.6   21.4   21.4  1013.5  0.00   0.0   0.000   0.008   26.0    58   17.1   26.5  10.40 1.1582    116    1    100.0    5 
 4/07/15   1:25   20.5   20.6   20.5    80   16.9   4.0    NE   0.33   6.0   NNE   20.5   21.3   21.3  1013.5  0.00   0.0   0.000   0.008   26.0    58   17.1   26.5  10.40 1.1582    117    1    100.0    5 
 4/07/15   1:30   20.4   20.5   20.4    81   17.1   4.0    NE   0.33   8.0    NE   20.4   21.3   21.3  1013.3  0.00   0.0   0.000   0.007   26.0    59   17.4   26.6  10.60 1.1575    117    1    100.0    5 
 4/07/15   1:35   20.3   20.4   20.3    81   17.0   5.0    NE   0.42   8.0    NE   20.3   21.2   21.2  1013.2  0.00   0.0   0.000   0.007   26.0    58   17.1   26.5  10.40 1.1579    117    1    100.0    5 
 4/07/15   1:40   20.3   20.3   20.3    81   16.9   3.0   ENE   0.25   8.0    NE   20.3   21.1   21.1  1013.3  0.00   0.0   0.000   0.007   25.9    58   17.0   26.4  10.40 1.1582    117    1    100.0    5 
 4/07/15   1:45   20.3   20.3   20.3    81   16.9   2.0    NE   0.17   3.0   ENE   20.3   21.1   21.1  1013.2  0.00   0.0   0.000   0.007   25.9    58   17.0   26.4  10.40 1.1581    116    1    100.0    5 
 4/07/15   1:50   20.3   20.3   20.3    81   16.9   2.0   NNE   0.17   4.0    NE   20.3   21.1   21.1  1013.2  0.00   0.0   0.000   0.007   25.9    59   17.3   26.4  10.60 1.1578    117    1    100.0    5 
 4/07/15   1:55   20.3   20.3   20.3    82   17.1   5.0    NE   0.42   8.0    NE   20.3   21.1   21.1  1013.1  0.00   0.0   0.000   0.007   25.9    59   17.3   26.4  10.60 1.1577    117    1    100.0    5 
 4/07/15   2:00   20.2   20.3   20.2    82   17.0   4.0    NE   0.33   8.0   ENE   20.2   21.1   21.1  1013.1  0.00   0.0   0.000   0.007   25.9    59   17.3   26.4  10.60 1.1576    117    1    100.0    5 
 4/07/15   2:05   20.2   20.2   20.2    82   17.0   3.0    NE   0.25   7.0    NE   20.2   21.1   21.1  1013.0  0.00   0.0   0.000   0.007   25.9    59   17.3   26.4  10.60 1.1576    117    1    100.0    5 
 4/07/15   2:10   20.2   20.2   20.2    82   17.0   4.0    NE   0.33   8.0   NNE   20.2   21.1   21.1  1013.0  0.00   0.0   0.000   0.007   25.9    59   17.3   26.4  10.61 1.1578    117    1    100.0    5 
 4/07/15   2:15   20.2   20.3   20.2    83   17.2   4.0   NNE   0.33   8.0    NE   20.2   21.1   21.1  1013.0  0.00   0.0   0.000   0.007   25.9    59   17.3   26.4  10.61 1.1578    117    1    100.0    5 
 4/07/15   2:20   20.3   20.3   20.2    83   17.3   2.0   NNE   0.17   5.0   NNE   20.3   21.2   21.2  1013.1  0.00   0.0   0.000   0.007   25.9    59   17.3   26.4  10.61 1.1579    117    1    100.0    5 
 4/07/15   2:25   20.3   20.3   20.3    83   17.3   4.0    NE   0.33   8.0   ENE   20.3   21.2   21.2  1012.9  0.00   0.0   0.000   0.007   25.9    59   17.3   26.4  10.61 1.1577    117    1    100.0    5 
 4/07/15   2:30   20.3   20.3   20.3    83   17.3   4.0    NE   0.33   7.0   ENE   20.3   21.2   21.2  1012.9  0.00   0.0   0.000   0.007   25.9    59   17.3   26.4  10.61 1.1577    117    1    100.0    5 
 4/07/15   2:35   20.3   20.4   20.3    83   17.3   3.0    NE   0.25   5.0   ENE   20.3   21.2   21.2  1012.9  0.00   0.0   0.000   0.007   25.9    59   17.3   26.4  10.61 1.1577    117    1    100.0    5 
 4/07/15   2:40   20.3   20.4   20.3    83   17.3   2.0    NE   0.17   4.0    NE   20.3   21.2   21.2  1012.8  0.00   0.0   0.000   0.007   25.9    60   17.5   26.4  10.81 1.1572    117    1    100.0    5 
 4/07/15   2:45   20.4   20.4   20.3    84   17.6   3.0   ENE   0.25   5.0   ENE   20.4   21.3   21.3  1012.8  0.00   0.0   0.000   0.007   25.9    60   17.5   26.4  10.81 1.1572    116    1    100.0    5 
 4/07/15   2:50   20.4   20.4   20.4    84   17.6   2.0    NE   0.17   5.0   ENE   20.4   21.3   21.3  1012.9  0.00   0.0   0.000   0.007   25.9    60   17.5   26.4  10.81 1.1573    115    1    100.0    5 
 4/07/15   2:55   20.4   20.4   20.4    84   17.6   2.0    NE   0.17   4.0   ENE   20.4   21.4   21.4  1013.0  0.00   0.0   0.000   0.007   25.9    60   17.6   26.5  10.80 1.1571    117    1    100.0    5 
 4/07/15   3:00   20.4   20.4   20.4    84   17.6   0.0    NE   0.00   2.0    NE   20.4   21.3   21.3  1012.9  0.00   0.0   0.000   0.007   25.9    60   17.6   26.5  10.80 1.1570    116    1    100.0    5 
 4/07/15   3:05   20.4   20.4   20.4    84   17.6   1.0    NE   0.08   3.0    NE   20.4   21.3   21.3  1013.0  0.00   0.0   0.000   0.007   25.9    60   17.6   26.5  10.80 1.1571    117    1    100.0    5 
 4/07/15   3:10   20.3   20.4   20.3    84   17.5   1.0    NE   0.08   2.0    NE   20.3   21.2   21.2  1012.9  0.00   0.0   0.000   0.007   26.0    60   17.6   26.6  10.80 1.1567    117    1    100.0    5 
 4/07/15   3:15   20.3   20.3   20.3    84   17.5   1.0    NE   0.08   2.0    NE   20.3   21.2   21.2  1012.9  0.00   0.0   0.000   0.007   26.0    60   17.6   26.6  10.80 1.1568    117    1    100.0    5 
 4/07/15   3:20   20.2   20.3   20.2    84   17.4   0.0    NE   0.00   1.0    NE   20.2   21.0   21.0  1013.1  0.00   0.0   0.000   0.006   26.0    59   17.4   26.6  10.60 1.1573    116    1    100.0    5 
 4/07/15   3:25   20.2   20.2   20.2    84   17.4   2.0   WNW   0.17   4.0     W   20.2   21.0   21.0  1013.5  0.00   0.0   0.000   0.006   26.1    60   17.7   26.7  10.79 1.1571    116    1    100.0    5 
 4/07/15   3:30   20.2   20.2   20.1    85   17.6   3.0    SW   0.25   4.0     W   20.2   21.1   21.1  1013.4  0.00   0.0   0.000   0.006   26.1    59   17.4   26.6  10.59 1.1574    115    1    100.0    5 
 4/07/15   3:35   20.2   20.2   20.2    86   17.7   3.0    SW   0.25   4.0   WSW   20.2   21.1   21.1  1013.5  0.00   0.0   0.000   0.006   26.1    60   17.7   26.7  10.79 1.1569    117    1    100.0    5 
 4/07/15   3:40   20.1   20.2   20.1    86   17.7   2.0     W   0.17   5.0   WSW   20.1   21.0   21.0  1013.5  0.00   0.0   0.000   0.006   26.1    60   17.7   26.7  10.79 1.1568    116    1    100.0    5 
 4/07/15   3:45   20.0   20.1   20.0    86   17.6   2.0    SW   0.17   5.0   WSW   20.0   20.8   20.8  1013.5  0.00   0.0   0.000   0.006   26.1    60   17.7   26.7  10.79 1.1568    118    1    100.0    5 
 4/07/15   3:50   19.9   20.1   19.9    87   17.7   1.0    SW   0.08   3.0   SSW   19.9   20.8   20.8  1013.5  0.00   0.0   0.000   0.006   26.1    60   17.7   26.7  10.79 1.1569    116    1    100.0    5 
 4/07/15   3:55   19.8   19.9   19.8    87   17.6   4.0   SSW   0.33   5.0   SSW   19.8   20.7   20.7  1013.8  0.00   0.0   0.000   0.005   26.1    60   17.7   26.7  10.79 1.1572    117    1    100.0    5 
 4/07/15   4:00   19.8   19.9   19.8    87   17.6   5.0   SSW   0.42   6.0   SSW   19.8   20.6   20.6  1013.6  0.00   0.0   0.000   0.005   26.1    60   17.7   26.7  10.79 1.1570    117    1    100.0    5 
 4/07/15   4:05   19.7   19.8   19.7    88   17.7   4.0   SSW   0.33   5.0   SSW   19.7   20.6   20.6  1013.5  0.00   0.0   0.000   0.005   26.1    61   17.9   26.7  10.97 1.1567    115    1    100.0    5 
 4/07/15   4:10   19.6   19.7   19.6    88   17.5   3.0    SW   0.25   4.0    SW   19.6   20.4   20.4  1013.6  0.00   0.0   0.000   0.004   26.1    60   17.7   26.7  10.79 1.1573    117    1    100.0    5 
 4/07/15   4:15   19.4   19.6   19.4    88   17.3   3.0   SSW   0.25   5.0     S   19.4   20.2   20.2  1013.4  0.00   0.0   0.000   0.004   26.0    60   17.6   26.6  10.80 1.1573    117    1    100.0    5 
 4/07/15   4:20   19.3   19.4   19.3    88   17.3   4.0     S   0.33   5.0     S   19.3   20.1   20.1  1013.7  0.00   0.0   0.000   0.003   26.0    60   17.6   26.6  10.80 1.1576    117    1    100.0    5 
 4/07/15   4:25   19.2   19.3   19.2    89   17.4   3.0   SSW   0.25   4.0   SSW   19.2   20.0   20.0  1013.8  0.00   0.0   0.000   0.003   25.9    60   17.6   26.5  10.80 1.1580    117    1    100.0    5 
 4/07/15   4:30   19.1   19.2   19.1    88   17.0   2.0   SSW   0.17   3.0   SSW   19.1   19.8   19.8  1013.7  0.00   0.0   0.000   0.003   25.9    60   17.5   26.4  10.81 1.1582    117    1    100.0    5 
 4/07/15   4:35   18.9   19.1   18.9    89   17.1   2.0   SSW   0.17   3.0   SSW   18.9   19.7   19.7  1013.7  0.00   0.0   0.000   0.002   25.9    60   17.5   26.4  10.81 1.1582    117    1    100.0    5 
 4/07/15   4:40   18.9   18.9   18.9    89   17.0   2.0   SSW   0.17   3.0   SSW   18.9   19.6   19.6  1013.8  0.00   0.0   0.000   0.002   25.8    60   17.5   26.4  10.81 1.1586    117    1    100.0    5 
 4/07/15   4:45   18.8   18.9   18.8    89   17.0   4.0     S   0.33   5.0     S   18.8   19.5   19.5  1013.9  0.00   0.0   0.000   0.002   25.8    60   17.5   26.4  10.81 1.1587    117    1    100.0    5 
 4/07/15   4:50   18.8   18.8   18.8    89   16.9   4.0     S   0.33   5.0     S   18.8   19.4   19.4  1013.9  0.00   0.0   0.000   0.002   25.8    60   17.4   26.3  10.81 1.1590    118    1    100.0    5 
 4/07/15   4:55   18.6   18.8   18.6    90   16.9   5.0     S   0.42   7.0     S   18.6   19.3   19.3  1014.2  0.00   0.0   0.000   0.001   25.7    60   17.4   26.3  10.82 1.1596    117    1    100.0    5 
 4/07/15   5:00   18.5   18.6   18.5    90   16.8   6.0   SSW   0.50   7.0   SSW   18.5   19.1   19.1  1014.2  0.00   0.0   0.000   0.001   25.6    60   17.3   26.1  10.83 1.1603    117    1    100.0    5 
 4/07/15   5:05   18.3   18.5   18.3    90   16.7   6.0   SSW   0.50   8.0   SSW   18.3   18.9   18.9  1014.3  0.00   0.0   0.000   0.000   25.6    60   17.2   26.1  10.83 1.1607    117    1    100.0    5 
 4/07/15   5:10   18.3   18.3   18.2    90   16.6   7.0   SSW   0.58   9.0   SSW   18.3   18.8   18.8  1014.5  0.00   0.0   0.000   0.000   25.6    60   17.2   26.1  10.83 1.1609    117    1    100.0    5 
 4/07/15   5:15   18.2   18.2   18.2    91   16.7   7.0    SW   0.58   9.0   SSW   18.2   18.7   18.7  1014.5  0.00   0.0   0.001   0.000   25.4    60   17.1   25.9  10.84 1.1615    117    1    100.0    5 
 4/07/15   5:20   18.1   18.2   18.1    91   16.6   7.0    SW   0.58   8.0    SW   18.1   18.6   18.6  1014.5  0.00   0.0   0.001   0.000   25.4    60   17.1   25.9  10.84 1.1617    117    1    100.0    5 
 4/07/15   5:25   18.1   18.1   18.0    91   16.6   6.0   WSW   0.50   8.0    SW   18.1   18.6   18.6  1014.4  0.00   0.0   0.001   0.000   25.3    60   17.0   25.8  10.85 1.1620    116    1    100.0    5 
 4/07/15   5:30   18.0   18.1   18.0    91   16.5   6.0   WSW   0.50   8.0    SW   18.0   18.5   18.5  1014.5  0.00   0.0   0.001   0.000   25.3    60   17.0   25.8  10.85 1.1623    117    1    100.0    5 
 4/07/15   5:35   18.0   18.0   18.0    92   16.7   7.0    SW   0.58   9.0    SW   18.0   18.6   18.6  1014.6  0.00   0.0   0.001   0.000   25.2    60   16.9   25.7  10.85 1.1628    116    1    100.0    5 
 4/07/15   5:40   18.1   18.1   18.0    92   16.8   7.0   WSW   0.58   9.0    SW   18.1   18.7   18.7  1014.8  0.00   0.0   0.001   0.000   25.2    60   16.9   25.7  10.85 1.1630    117    1    100.0    5 
 4/07/15   5:45   18.2   18.2   18.1    92   16.8   7.0   WSW   0.58  10.0    SW   18.2   18.7   18.7  1014.5  0.00   0.0   0.001   0.000   25.2    61   17.1   25.7  11.00 1.1626    117    1    100.0    5 
 4/07/15   5:50   18.3   18.3   18.2    92   17.0   5.0   WSW   0.42   8.0   WSW   18.3   18.9   18.9  1014.5  0.00   0.0   0.000   0.000   25.1    61   17.1   25.6  11.01 1.1628    116    1    100.0    5 
 4/07/15   5:55   18.4   18.4   18.3    92   17.1   8.0   WSW   0.67  13.0   WSW   18.1   19.0   18.7  1014.8  0.00   0.0   0.000   0.000   25.1    61   17.0   25.6  11.01 1.1635    117    1    100.0    5 
 4/07/15   6:00   18.4   18.4   18.4    92   17.1  12.0   WSW   1.00  17.0   WSW   16.5   19.1   17.1  1015.1  0.00   0.0   0.000   0.000   25.1    62   17.3   25.6  11.21 1.1635    117    1    100.0    5 
 4/07/15   6:05   18.3   18.4   18.3    92   17.0  14.0   WSW   1.17  17.0    SW   15.8   18.9   16.4  1015.3  0.00   0.0   0.000   0.000   25.0    62   17.2   25.6  11.21 1.1640    116    1    100.0    5 
 4/07/15   6:10   18.3   18.3   18.3    92   17.0  10.0   WSW   0.83  15.0   WSW   17.1   18.9   17.7  1015.1  0.00   0.0   0.000   0.000   24.9    62   17.2   25.5  11.21 1.1641    117    1    100.0    5 
 4/07/15   6:15   18.2   18.3   18.2    92   16.9   9.0   WSW   0.75  14.0   WSW   17.4   18.8   18.0  1015.1  0.00   0.0   0.000   0.000   24.9    62   17.1   25.4  11.21 1.1644    117    1    100.0    5 
 4/07/15   6:20   18.2   18.2   18.2    92   16.8  11.0   WSW   0.92  14.0   WSW   16.5   18.7   17.1  1015.4  0.00   0.0   0.001   0.000   24.9    62   17.1   25.4  11.21 1.1647    117    1    100.0    5 
 4/07/15   6:25   18.1   18.2   18.1    92   16.8  12.0   WSW   1.00  15.0   WSW   16.1   18.7   16.7  1015.4  0.00   0.0   0.001   0.000   24.8    62   17.1   25.4  11.22 1.1650    117    1    100.0    5 
 4/07/15   6:30   18.0   18.1   18.0    92   16.7  12.0   WSW   1.00  15.0   WSW   16.0   18.6   16.6  1015.5  0.00   0.0   0.001   0.000   24.8    62   17.0   25.3  11.22 1.1654    117    1    100.0    5 
 4/07/15   6:35   18.0   18.1   18.0    93   16.9  13.0   WSW   1.08  16.0   WSW   15.7   18.6   16.3  1015.6  0.00   0.0   0.001   0.000   24.8    62   17.0   25.3  11.22 1.1655    117    1    100.0    5 
 4/07/15   6:40   18.0   18.0   18.0    93   16.9  11.0   WSW   0.92  15.0   WSW   16.3   18.6   16.9  1015.7  0.00   0.0   0.001   0.000   24.7    62   16.9   25.2  11.22 1.1663    117    1    100.0    5 
 4/07/15   6:45   18.0   18.0   18.0    93   16.9  15.0   WSW   1.25  17.0    SW   15.3   18.6   15.8  1015.9  0.00   0.0   0.001   0.000   24.7    62   16.9   25.2  11.22 1.1664    117    1    100.0    5 
 4/07/15   6:50   18.1   18.1   18.0    93   17.0  13.0   WSW   1.08  16.0   WSW   15.8   18.7   16.4  1016.0  0.00   0.0   0.001   0.000   24.6    63   17.1   25.2  11.42 1.1665    117    1    100.0    5 
 4/07/15   6:55   18.1   18.1   18.1    93   16.9  14.0   WSW   1.17  17.0    SW   15.6   18.6   16.1  1016.0  0.00   0.0   0.001   0.000   24.6    63   17.0   25.1  11.43 1.1668    118    1    100.0    5 
 4/07/15   7:00   18.1   18.1   18.0    93   16.9  13.0   WSW   1.08  17.0   WSW   15.8   18.6   16.3  1015.8  0.00   0.0   0.001   0.000   24.5    63   17.0   25.1  11.43 1.1668    117    1    100.0    5 
 4/07/15   7:05   18.0   18.0   18.0    93   16.9  15.0   WSW   1.25  19.0   WSW   15.3   18.6   15.8  1016.2  0.00   0.0   0.001   0.000   24.4    63   16.9   25.0  11.43 1.1677    116    1    100.0    5 
 4/07/15   7:10   17.8   18.0   17.8    93   16.7  16.0   WSW   1.33  20.0    SW   14.9   18.3   15.4  1016.2  0.00   0.0   0.002   0.000   24.4    63   16.9   24.9  11.43 1.1679    117    1    100.0    5 
 4/07/15   7:15   17.9   17.9   17.8    93   16.7  14.0   WSW   1.17  20.0     W   15.3   18.4   15.9  1016.3  0.00   0.0   0.002   0.000   24.3    63   16.8   24.9  11.43 1.1683    117    1    100.0    5 
 4/07/15   7:20   17.9   17.9   17.9    93   16.8  14.0   WSW   1.17  18.0   WSW   15.4   18.5   16.0  1016.3  0.00   0.0   0.001   0.000   24.3    64   17.0   24.9  11.64 1.1683    116    1    100.0    5 
 4/07/15   7:25   18.0   18.0   17.9    94   17.0  14.0   WSW   1.17  18.0   WSW   15.5   18.6   16.1  1016.5  0.00   0.0   0.001   0.000   24.2    64   17.0   24.8  11.64 1.1688    117    1    100.0    5 
 4/07/15   7:30   18.1   18.1   18.0    93   16.9  16.0   WSW   1.33  21.0   WSW   15.2   18.6   15.8  1016.6  0.00   0.0   0.001   0.000   24.2    64   17.0   24.8  11.64 1.1689    115    1    100.0    5 
 4/07/15   7:35   18.1   18.1   18.1    93   16.9  16.0   WSW   1.33  21.0   WSW   15.2   18.6   15.8  1016.5  0.00   0.0   0.001   0.000   24.2    64   16.9   24.8  11.64 1.1691    117    1    100.0    5 
 4/07/15   7:40   18.2   18.2   18.1    94   17.2  15.0   WSW   1.25  21.0   WSW   15.5   18.8   16.1  1016.7  0.00   0.0   0.001   0.000   24.1    65   17.1   24.8  11.84 1.1692    115    1    100.0    5 
 4/07/15   7:45   18.2   18.2   18.2    94   17.2  16.0   WSW   1.33  22.0   WSW   15.4   18.8   16.0  1016.7  0.00   0.0   0.000   0.000   24.1    65   17.1   24.8  11.84 1.1696    117    1    100.0    5 
 4/07/15   7:50   18.2   18.3   18.2    94   17.2  15.0   WSW   1.25  21.0   WSW   15.6   18.8   16.2  1016.7  0.00   0.0   0.000   0.000   24.1    65   17.1   24.8  11.84 1.1695    115    1    100.0    5 
 4/07/15   7:55   18.3   18.3   18.2    93   17.2  13.0   WSW   1.08  18.0   WSW   16.1   18.9   16.7  1016.6  0.00   0.0   0.000   0.000   24.0    65   17.0   24.7  11.85 1.1697    116    1    100.0    5 
 4/07/15   8:00   18.3   18.3   18.3    93   17.2  13.0   WSW   1.08  18.0   WSW   16.1   18.9   16.7  1016.7  0.00   0.0   0.000   0.000   24.0    65   17.0   24.7  11.85 1.1698    117    1    100.0    5 
 4/07/15   8:05   18.4   18.4   18.3    93   17.2  13.0   WSW   1.08  19.0   WSW   16.2   19.0   16.8  1016.7  0.00   0.0   0.000   0.000   23.9    66   17.2   24.7  12.05 1.1698    116    1    100.0    5 
 4/07/15   8:10   18.4   18.4   18.3    93   17.3  14.0   WSW   1.17  19.0    SW   16.0   19.1   16.7  1016.9  0.00   0.0   0.000   0.000   23.9    66   17.2   24.7  12.05 1.1700    117    1    100.0    5 
 4/07/15   8:15   18.6   18.6   18.4    93   17.4  14.0   WSW   1.17  17.0   WSW   16.1   19.2   16.8  1017.0  0.00   0.0   0.000   0.001   23.9    66   17.2   24.7  12.05 1.1702    117    1    100.0    5 
 4/07/15   8:20   18.6   18.6   18.6    92   17.2  14.0   WSW   1.17  18.0   WSW   16.1   19.2   16.8  1016.9  0.00   0.0   0.000   0.001   23.9    66   17.1   24.7  12.05 1.1704    116    1    100.0    5 
 4/07/15   8:25   18.4   18.6   18.4    91   16.9  13.0   WSW   1.08  16.0   WSW   16.2   19.1   16.8  1017.2  0.00   0.0   0.000   0.000   23.9    65   16.9   24.6  11.85 1.1710    116    1    100.0    5 
 4/07/15   8:30   18.4   18.4   18.4    90   16.8  14.0   WSW   1.17  17.0   WSW   16.0   19.1   16.6  1017.3  0.00   0.0   0.000   0.000   23.9    64   16.7   24.6  11.65 1.1715    117    1    100.0    5 
 4/07/15   8:35   18.5   18.6   18.4    90   16.8  14.0   WSW   1.17  17.0   WSW   16.1   19.1   16.7  1017.3  0.00   0.0   0.000   0.001   23.9    64   16.7   24.6  11.65 1.1715    117    1    100.0    5 
 4/07/15   8:40   18.7   18.7   18.5    89   16.8  14.0   WSW   1.17  18.0   WSW   16.3   19.3   16.9  1017.5  0.00   0.0   0.000   0.001   23.8    64   16.6   24.5  11.65 1.1720    117    1    100.0    5 
 4/07/15   8:45   18.7   18.7   18.6    90   17.0  13.0    SW   1.08  18.0    SW   16.5   19.3   17.2  1017.8  0.00   0.0   0.000   0.001   23.8    64   16.6   24.5  11.65 1.1724    117    1    100.0    5 
 4/07/15   8:50   18.6   18.7   18.5    89   16.7  14.0    SW   1.17  16.0    SW   16.1   19.2   16.7  1017.9  0.00   0.0   0.000   0.001   23.8    64   16.6   24.5  11.65 1.1724    117    1    100.0    5 
 4/07/15   8:55   18.6   18.6   18.5    90   16.9  14.0    SW   1.17  17.0    SW   16.2   19.3   16.9  1018.0  0.00   0.0   0.000   0.001   23.8    64   16.6   24.4  11.65 1.1729    117    1    100.0    5 
 4/07/15   9:00   18.5   18.7   18.5    90   16.8  13.0    SW   1.08  17.0   WSW   16.3   19.1   16.9  1017.8  0.00   0.0   0.000   0.001   23.7    65   16.7   24.4  11.85 1.1726    116    1    100.0    5 
 4/07/15   9:05   18.4   18.6   18.4    91   16.9  14.0    SW   1.17  17.0   WSW   16.0   19.1   16.6  1017.9  0.00   0.0   0.000   0.000   23.8    64   16.6   24.4  11.65 1.1728    115    1    100.0    5 
 4/07/15   9:10   18.6   18.6   18.4    91   17.1  13.0    SW   1.08  16.0    SW   16.4   19.3   17.1  1017.9  0.00   0.0   0.000   0.001   23.8    64   16.6   24.5  11.65 1.1725    116    1    100.0    5 
 4/07/15   9:15   18.4   18.6   18.4    90   16.7  13.0    SW   1.08  16.0    SW   16.2   18.9   16.7  1017.8  0.00   0.0   0.000   0.000   23.9    64   16.7   24.6  11.65 1.1718    117    1    100.0    5 
 4/07/15   9:20   18.5   18.5   18.3    91   17.0  13.0    SW   1.08  16.0    SW   16.3   19.1   16.9  1017.8  0.00   0.0   0.000   0.001   24.0    64   16.8   24.7  11.65 1.1715    117    1    100.0    5 
 4/07/15   9:25   18.4   18.6   18.4    90   16.8  14.0   WSW   1.17  16.0    SW   16.0   19.1   16.6  1017.8  0.00   0.0   0.000   0.000   24.1    64   16.9   24.8  11.64 1.1709    116    1    100.0    5 
 4/07/15   9:30   18.7   18.7   18.4    90   17.0  13.0   WSW   1.08  16.0   WSW   16.6   19.4   17.2  1017.7  0.00   0.0   0.000   0.001   24.2    64   16.9   24.8  11.64 1.1705    116    1    100.0    5 
 4/07/15   9:35   18.7   18.7   18.6    89   16.8  14.0   WSW   1.17  17.0   WSW   16.3   19.3   16.9  1017.6  0.00   0.0   0.000   0.001   24.3    63   16.8   24.9  11.43 1.1699    117    1    100.0    5 
 4/07/15   9:40   18.8   18.8   18.7    89   17.0  13.0   WSW   1.08  16.0   WSW   16.7   19.5   17.3  1017.6  0.00   0.0   0.000   0.002   24.4    63   16.9   24.9  11.43 1.1696    116    1    100.0    5 
 4/07/15   9:45   18.8   18.8   18.8    88   16.7  14.0   WSW   1.17  17.0   WSW   16.4   19.4   17.0  1017.7  0.00   0.0   0.000   0.002   24.5    63   17.0   25.1  11.43 1.1691    117    1    100.0    5 
 4/07/15   9:50   18.7   18.8   18.7    88   16.7  13.0    SW   1.08  17.0    SW   16.6   19.3   17.2  1017.8  0.00   0.0   0.000   0.001   24.6    63   17.1   25.2  11.42 1.1686    116    1    100.0    5 
 4/07/15   9:55   18.7   18.7   18.7    88   16.7  14.0    SW   1.17  17.0   WSW   16.3   19.3   16.9  1017.9  0.00   0.0   0.000   0.001   24.7    63   17.2   25.3  11.42 1.1681    117    1    100.0    5 
 4/07/15  10:00   18.8   18.8   18.6    88   16.7  14.0    SW   1.17  17.0    SW   16.4   19.4   17.0  1018.0  0.00   0.0   0.000   0.002   24.8    62   17.1   25.4  11.22 1.1680    117    1    100.0    5 
 4/07/15  10:05   18.6   18.8   18.6    88   16.6  16.0    SW   1.33  19.0    SW   15.8   19.2   16.4  1018.0  0.00   0.0   0.000   0.001   24.9    62   17.2   25.5  11.21 1.1674    118    1    100.0    5 
 4/07/15  10:10   18.6   18.6   18.6    89   16.8  15.0    SW   1.25  18.0    SW   16.0   19.2   16.6  1018.1  0.00   0.0   0.000   0.001   25.0    61   17.0   25.5  11.01 1.1676    116    1    100.0    5 
 4/07/15  10:15   18.7   18.7   18.6    89   16.8  14.0    SW   1.17  18.0    SW   16.3   19.3   16.9  1018.1  0.00   0.0   0.000   0.001   25.1    61   17.1   25.6  11.01 1.1671    117    1    100.0    5 
 4/07/15  10:20   18.5   18.7   18.5    88   16.5  15.0    SW   1.25  17.0    SW   15.9   19.1   16.4  1018.2  0.00   0.0   0.000   0.001   25.2    61   17.1   25.7  11.00 1.1668    117    1    100.0    5 
 4/07/15  10:25   18.6   18.6   18.6    88   16.5  15.0    SW   1.25  18.0    SW   15.9   19.1   16.5  1018.3  0.00   0.0   0.000   0.001   25.3    61   17.2   25.8  11.00 1.1664    117    1    100.0    5 
 4/07/15  10:30   18.6   18.7   18.6    88   16.6  14.0    SW   1.17  18.0    SW   16.2   19.2   16.8  1018.3  0.00   0.0   0.000   0.001   25.3    61   17.3   25.9  11.00 1.1661    115    1    100.0    5 
 4/07/15  10:35   18.6   18.6   18.6    89   16.8  13.0    SW   1.08  17.0    SW   16.4   19.2   17.1  1018.4  0.00   0.0   0.000   0.001   25.4    61   17.4   26.0  10.99 1.1656    116    1    100.0    5 
 4/07/15  10:40   18.4   18.6   18.4    89   16.5  14.0    SW   1.17  17.0    SW   15.9   18.9   16.5  1018.4  0.00   0.0   0.000   0.000   25.5    61   17.4   26.1  10.99 1.1654    116    1    100.0    5 
 4/07/15  10:45   18.6   18.6   18.4    89   16.8  13.0    SW   1.08  17.0   WSW   16.4   19.2   17.1  1018.4  0.00   0.0   0.000   0.001   25.6    60   17.2   26.1  10.83 1.1654    117    1    100.0    5 
 4/07/15  10:50   18.5   18.7   18.5    89   16.7  14.0    SW   1.17  17.0    SW   16.1   19.1   16.6  1018.5  0.00   0.0   0.000   0.001   25.7    60   17.3   26.2  10.82 1.1649    117    1    100.0    5 
 4/07/15  10:55   18.6   18.6   18.5    89   16.8  16.0    SW   1.33  20.0    SW   15.8   19.2   16.4  1018.5  0.00   0.0   0.000   0.001   25.7    60   17.4   26.3  10.82 1.1647    117    1    100.0    5 
 4/07/15  11:00   18.7   18.7   18.6    88   16.6  15.0    SW   1.25  18.0    SW   16.1   19.3   16.7  1018.5  0.00   0.0   0.000   0.001   25.8    61   17.7   26.4  10.98 1.1638    117    1    100.0    5 
 4/07/15  11:05   18.6   18.7   18.6    88   16.6  15.0    SW   1.25  19.0    SW   16.0   19.2   16.6  1018.6  0.00   0.0   0.000   0.001   25.9    60   17.5   26.4  10.81 1.1639    116    1    100.0    5 
 4/07/15  11:10   18.6   18.6   18.6    89   16.7  15.0    SW   1.25  19.0    SW   15.9   19.2   16.6  1018.6  0.00   0.0   0.000   0.001   25.9    60   17.6   26.5  10.80 1.1636    116    1    100.0    5 
 4/07/15  11:15   18.6   18.6   18.4    89   16.7  15.0    SW   1.25  19.0    SW   15.9   19.2   16.6  1018.6  0.00   0.0   0.000   0.001   26.0    60   17.6   26.6  10.80 1.1633    116    1    100.0    5 
 4/07/15  11:20   18.7   18.7   18.6    88   16.6  16.0    SW   1.33  20.0    SW   15.9   19.3   16.5  1018.8  0.00   0.0   0.000   0.001   26.1    59   17.4   26.6  10.59 1.1636    117    1    100.0    5 
 4/07/15  11:25   18.6   18.7   18.6    89   16.8  17.0    SW   1.42  21.0    SW   15.7   19.2   16.3  1018.7  0.00   0.0   0.000   0.001   26.1    60   17.7   26.7  10.79 1.1629    116    1    100.0    5 
 4/07/15  11:30   18.6   18.7   18.6    89   16.8  16.0    SW   1.33  19.0    SW   15.8   19.2   16.4  1018.7  0.00   0.0   0.000   0.001   26.2    59   17.5   26.7  10.59 1.1630    117    1    100.0    5 
 4/07/15  11:35   18.4   18.6   18.4    88   16.4  15.0    SW   1.25  19.0    SW   15.7   18.9   16.2  1018.7  0.00   0.0   0.000   0.000   26.2    59   17.6   26.8  10.58 1.1626    117    1    100.0    5 
 4/07/15  11:40   18.5   18.5   18.3    89   16.7  15.0    SW   1.25  19.0    SW   15.9   19.1   16.4  1018.7  0.00   0.0   0.000   0.001   26.3    59   17.6   26.9  10.58 1.1624    117    1    100.0    5 
 4/07/15  11:45   18.5   18.5   18.3    89   16.7  15.0    SW   1.25  19.0    SW   15.9   19.1   16.4  1018.9  0.00   0.0   0.000   0.001   26.3    59   17.7   26.9  10.57 1.1623    117    1    100.0    5 
 4/07/15  11:50   18.6   18.6   18.5    88   16.6  18.0    SW   1.50  21.0   WSW   15.5   19.2   16.1  1018.9  0.00   0.0   0.000   0.001   26.4    58   17.5   26.9  10.37 1.1625    117    1    100.0    5 
 4/07/15  11:55   18.7   18.7   18.6    88   16.6  18.0    SW   1.50  21.0   WSW   15.6   19.3   16.2  1018.8  0.00   0.0   0.000   0.001   26.4    58   17.5   27.0  10.37 1.1621    117    1    100.0    5 
 4/07/15  12:00   18.7   18.7   18.6    87   16.5  19.0    SW   1.58  24.0    SW   15.4   19.2   16.0  1018.8  0.00   0.0   0.000   0.001   26.4    58   17.5   27.0  10.37 1.1620    117    1    100.0    5 
 4/07/15  12:05   18.7   18.7   18.7    88   16.7  19.0    SW   1.58  23.0    SW   15.5   19.3   16.1  1018.9  0.00   0.0   0.000   0.001   26.5    58   17.6   27.1  10.36 1.1618    116    1    100.0    5 
 4/07/15  12:10   18.8   18.8   18.7    88   16.8  19.0    SW   1.58  24.0    SW   15.6   19.5   16.3  1018.9  0.00   0.0   0.000   0.002   26.6    58   17.6   27.1  10.36 1.1616    118    1    100.0    5 
 4/07/15  12:15   18.9   18.9   18.8    88   16.9  18.0    SW   1.50  23.0    SW   15.8   19.6   16.5  1019.0  0.00   0.0   0.000   0.002   26.6    58   17.6   27.1  10.36 1.1617    117    1    100.0    5 
 4/07/15  12:20   18.9   18.9   18.8    88   16.9  18.0    SW   1.50  22.0    SW   15.8   19.6   16.5  1019.2  0.00   0.0   0.000   0.002   26.6    58   17.7   27.2  10.35 1.1616    117    1    100.0    5 
 4/07/15  12:25   18.9   19.0   18.9    88   16.9  17.0    SW   1.42  22.0    SW   15.9   19.6   16.6  1019.2  0.00   0.0   0.000   0.002   26.7    58   17.7   27.3  10.35 1.1614    116    1    100.0    5 
 4/07/15  12:30   18.8   18.9   18.8    87   16.6  17.0    SW   1.42  22.0    SW   15.8   19.4   16.4  1019.2  0.00   0.0   0.000   0.002   26.7    57   17.5   27.3  10.15 1.1614    116    1    100.0    5 
 4/07/15  12:35   19.0   19.0   18.8    88   17.0  17.0    SW   1.42  20.0   WSW   16.1   19.7   16.7  1019.2  0.00   0.0   0.000   0.002   26.7    57   17.5   27.3  10.15 1.1615    117    1    100.0    5 
 4/07/15  12:40   18.9   19.1   18.9    86   16.5  17.0    SW   1.42  20.0    SW   15.9   19.5   16.6  1019.2  0.00   0.0   0.000   0.002   26.7    57   17.5   27.3  10.15 1.1614    117    1    100.0    5 
 4/07/15  12:45   18.9   18.9   18.8    87   16.7  16.0    SW   1.33  20.0    SW   16.1   19.5   16.7  1019.3  0.00   0.0   0.000   0.002   26.8    57   17.6   27.4  10.16 1.1609    117    1    100.0    5 
 4/07/15  12:50   18.9   18.9   18.8    87   16.7  15.0    SW   1.25  18.0    SW   16.4   19.6   17.0  1019.3  0.00   0.0   0.000   0.002   26.8    57   17.6   27.4  10.16 1.1610    116    1    100.0    5 
 4/07/15  12:55   18.9   18.9   18.9    87   16.7  14.0    SW   1.17  17.0    SW   16.6   19.6   17.2  1019.3  0.00   0.0   0.000   0.002   26.9    57   17.7   27.5  10.16 1.1607    117    1    100.0    5 
 4/07/15  13:00   19.1   19.1   18.9    87   16.8  15.0    SW   1.25  18.0   WSW   16.5   19.7   17.2  1019.5  0.00   0.0   0.000   0.003   26.9    57   17.7   27.6  10.16 1.1606    117    1    100.0    5 
 4/07/15  13:05   18.8   19.1   18.8    88   16.8  14.0    SW   1.17  17.0   WSW   16.4   19.5   17.1  1019.5  0.00   0.0   0.000   0.002   27.0    57   17.8   27.6  10.16 1.1603    116    1    100.0    5 
 4/07/15  13:10   18.9   18.9   18.8    88   16.9  15.0    SW   1.25  19.0    SW   16.4   19.6   17.1  1019.3  0.00   0.0   0.000   0.002   27.1    57   17.8   27.7  10.16 1.1599    117    1    100.0    5 
 4/07/15  13:15   18.8   19.0   18.8    88   16.7  15.0    SW   1.25  20.0   SSW   16.2   19.4   16.8  1019.3  0.00   0.0   0.000   0.002   27.1    57   17.9   27.8  10.17 1.1595    118    1    100.0    5 
 4/07/15  13:20   18.7   18.9   18.7    88   16.6  17.0    SW   1.42  21.0    SW   15.7   19.3   16.3  1019.2  0.00   0.0   0.000   0.001   27.2    57   17.9   27.8  10.17 1.1591    117    1    100.0    5 
 4/07/15  13:25   18.6   18.7   18.6    88   16.5  17.0    SW   1.42  20.0    SW   15.6   19.1   16.1  1019.2  0.00   0.0   0.000   0.001   27.2    56   17.7   27.8  10.05 1.1592    115    1    100.0    5 
 4/07/15  13:30   18.6   18.6   18.6    88   16.5  19.0    SW   1.58  22.0    SW   15.3   19.1   15.8  1019.1  0.00   0.0   0.000   0.001   27.2    56   17.7   27.8  10.05 1.1591    117    1    100.0    5 
 4/07/15  13:35   18.7   18.8   18.6    88   16.6  20.0    SW   1.67  24.0    SW   15.3   19.3   15.9  1019.1  0.00   0.0   0.000   0.001   27.3    56   17.7   27.9  10.05 1.1589    116    1    100.0    5 
 4/07/15  13:40   18.7   18.7   18.6    88   16.6  18.0    SW   1.50  23.0    SW   15.6   19.3   16.2  1019.1  0.00   0.0   0.000   0.001   27.3    56   17.8   28.0  10.05 1.1585    117    1    100.0    5 
 4/07/15  13:45   18.8   18.8   18.7    88   16.7  19.0    SW   1.58  24.0    SW   15.6   19.4   16.2  1019.2  0.00   0.0   0.000   0.002   27.4    56   17.8   28.1  10.05 1.1584    116    1    100.0    5 
 4/07/15  13:50   18.8   18.9   18.7    88   16.7  17.0    SW   1.42  23.0    SW   15.8   19.4   16.4  1019.3  0.00   0.0   0.000   0.002   27.4    56   17.9   28.2  10.05 1.1582    117    1    100.0    5 
 4/07/15  13:55   18.7   18.8   18.7    88   16.7  17.0    SW   1.42  21.0    SW   15.8   19.3   16.4  1019.4  0.00   0.0   0.000   0.001   27.5    56   17.9   28.2  10.05 1.1580    117    1    100.0    5 
 4/07/15  14:00   18.8   18.8   18.7    88   16.7  17.0    SW   1.42  21.0    SW   15.8   19.4   16.4  1019.5  0.00   0.0   0.000   0.002   27.6    56   18.0   28.3  10.05 1.1578    117    1    100.0    5 
 4/07/15  14:05   19.0   19.0   18.8    88   17.0  15.0    SW   1.25  20.0    SW   16.4   19.7   17.1  1019.5  0.00   0.0   0.000   0.002   27.6    55   17.8   28.3   9.85 1.1580    117    1    100.0    5 
 4/07/15  14:10   18.7   19.0   18.7    87   16.5  17.0    SW   1.42  21.0    SW   15.7   19.2   16.3  1019.5  0.00   0.0   0.000   0.001   27.7    55   17.9   28.5   9.85 1.1574    117    1    100.0    5 
 4/07/15  14:15   18.8   18.9   18.7    89   17.0  16.0    SW   1.33  18.0    SW   16.1   19.5   16.7  1019.5  0.00   0.0   0.000   0.002   27.7    55   17.9   28.5   9.85 1.1574    117    1    100.0    5 
 4/07/15  14:20   18.8   18.9   18.8    88   16.8  17.0    SW   1.42  20.0    SW   15.9   19.5   16.6  1019.6  0.00   0.0   0.000   0.002   27.8    55   18.0   28.7   9.85 1.1569    117    1    100.0    5 
 4/07/15  14:25   18.7   18.8   18.7    88   16.7  17.0    SW   1.42  21.0    SW   15.8   19.3   16.4  1019.6  0.00   0.0   0.000   0.001   27.9    55   18.0   28.7   9.85 1.1567    115    1    100.0    5 
 4/07/15  14:30   18.8   18.8   18.7    89   17.0  16.0    SW   1.33  20.0    SW   16.1   19.5   16.7  1019.6  0.00   0.0   0.000   0.002   27.9    55   18.1   28.8   9.85 1.1564    117    1    100.0    5 
 4/07/15  14:35   18.7   18.8   18.7    88   16.7  17.0    SW   1.42  21.0    SW   15.8   19.3   16.4  1019.6  0.00   0.0   0.000   0.001   28.0    55   18.1   28.9   9.85 1.1561    117    1    100.0    5 
 4/07/15  14:40   18.8   18.8   18.7    89   16.9  17.0    SW   1.42  21.0    SW   15.8   19.4   16.5  1019.6  0.00   0.0   0.000   0.002   28.1    55   18.2   29.0   9.85 1.1558    117    1    100.0    5 
 4/07/15  14:45   18.6   18.7   18.6    89   16.7  18.0    SW   1.50  21.0    SW   15.4   19.2   16.1  1019.6  0.00   0.0   0.000   0.001   28.1    55   18.2   29.1   9.85 1.1555    117    1    100.0    5 
 4/07/15  14:50   18.6   18.6   18.5    90   16.9  17.0    SW   1.42  21.0    SW   15.6   19.2   16.2  1019.7  0.00   0.0   0.000   0.001   28.2    55   18.3   29.1   9.85 1.1553    115    1    100.0    5 
 4/07/15  14:55   18.7   18.7   18.6    89   16.8  15.0    SW   1.25  18.0    SW   16.1   19.3   16.7  1019.8  0.00   0.0   0.000   0.001   28.2    55   18.3   29.2   9.85 1.1551    117    1    100.0    5 
 4/07/15  15:00   18.6   18.7   18.6    89   16.8  16.0   WSW   1.33  19.0    SW   15.8   19.2   16.4  1019.8  0.00   0.0   0.000   0.001   28.3    55   18.4   29.4   9.85 1.1546    117    1    100.0    5 
 4/07/15  15:05   18.7   18.8   18.7    88   16.6  15.0    SW   1.25  19.0    SW   16.1   19.3   16.7  1019.8  0.00   0.0   0.000   0.001   28.4    55   18.5   29.5   9.85 1.1543    117    1    100.0    5 
 4/07/15  15:10   18.7   18.8   18.6    88   16.7  15.0    SW   1.25  18.0    SW   16.1   19.3   16.7  1019.8  0.00   0.0   0.000   0.001   28.4    55   18.5   29.6   9.85 1.1540    117    1    100.0    5 
 4/07/15  15:15   18.7   18.7   18.6    89   16.8  15.0    SW   1.25  18.0   WSW   16.1   19.3   16.7  1019.8  0.00   0.0   0.000   0.001   28.4    55   18.5   29.6   9.85 1.1540    117    1    100.0    5 
 4/07/15  15:20   18.7   18.8   18.7    88   16.7  14.0    SW   1.17  17.0    SW   16.3   19.3   16.9  1019.8  0.00   0.0   0.000   0.001   28.6    55   18.6   29.8   9.85 1.1534    118    1    100.0    5 
 4/07/15  15:25   18.8   18.8   18.7    89   17.0  14.0    SW   1.17  18.0    SW   16.4   19.5   17.1  1019.8  0.00   0.0   0.000   0.002   28.6    55   18.7   29.9   9.85 1.1531    117    1    100.0    5 
 4/07/15  15:30   18.7   18.8   18.7    88   16.7  15.0    SW   1.25  18.0   SSW   16.1   19.3   16.7  1019.8  0.00   0.0   0.000   0.001   28.7    54   18.4   29.9   9.75 1.1533    115    1    100.0    5 
 4/07/15  15:35   18.8   18.8   18.7    89   17.0  15.0    SW   1.25  19.0    SW   16.3   19.5   16.9  1019.9  0.00   0.0   0.000   0.002   28.6    53   18.1   29.7   9.58 1.1542    116    1    100.0    5 
 4/07/15  15:40   18.7   18.8   18.7    88   16.7  14.0    SW   1.17  18.0    SW   16.3   19.3   16.9  1020.0  0.00   0.0   0.000   0.001   28.6    53   18.0   29.6   9.58 1.1545    117    1    100.0    5 
 4/07/15  15:45   18.9   18.9   18.7    89   17.0  13.0    SW   1.08  17.0    SW   16.7   19.6   17.4  1020.0  0.00   0.0   0.000   0.002   28.5    53   18.0   29.5   9.58 1.1548    117    1    100.0    5 
 4/07/15  15:50   18.9   19.0   18.9    88   16.9  14.0    SW   1.17  17.0    SW   16.5   19.6   17.2  1020.1  0.00   0.0   0.000   0.002   28.4    53   17.9   29.3   9.59 1.1554    116    1    100.0    5 
 4/07/15  15:55   18.9   18.9   18.9    89   17.1  15.0    SW   1.25  18.0    SW   16.4   19.7   17.1  1020.1  0.00   0.0   0.000   0.002   28.3    53   17.8   29.2   9.59 1.1557    117    1    100.0    5 
 4/07/15  16:00   19.1   19.1   18.9    89   17.2  16.0   SSW   1.33  20.0    SW   16.3   19.8   17.1  1020.0  0.00   0.0   0.000   0.003   28.2    53   17.7   29.1   9.59 1.1562    116    1    100.0    5 
 4/07/15  16:05   18.8   19.0   18.8    88   16.7  16.0   SSW   1.33  20.0    SW   16.0   19.4   16.6  1020.0  0.00   0.0   0.000   0.002   28.2    53   17.7   29.0   9.60 1.1565    117    1    100.0    5 
 4/07/15  16:10   18.7   18.8   18.7    88   16.7  16.0   SSW   1.33  19.0   SSW   15.9   19.3   16.6  1020.1  0.00   0.0   0.000   0.001   28.2    53   17.7   29.0   9.60 1.1566    117    1    100.0    5 
 4/07/15  16:15   18.8   18.8   18.7    88   16.8  15.0   SSW   1.25  20.0   SSW   16.3   19.5   16.9  1020.0  0.00   0.0   0.000   0.002   28.2    54   18.0   29.2   9.75 1.1558    116    1    100.0    5 
 4/07/15  16:20   18.7   18.8   18.7    87   16.5  15.0    SW   1.25  20.0    SW   16.1   19.3   16.7  1020.0  0.00   0.0   0.000   0.001   28.2    54   18.0   29.2   9.75 1.1558    117    1    100.0    5 
 4/07/15  16:25   18.6   18.8   18.6    87   16.3  17.0    SW   1.42  21.0    SW   15.6   19.1   16.1  1020.0  0.00   0.0   0.000   0.001   28.2    54   18.0   29.2   9.75 1.1558    117    1    100.0    5 
 4/07/15  16:30   18.5   18.6   18.4    87   16.3  17.0    SW   1.42  21.0    SW   15.5   19.1   16.1  1020.0  0.00   0.0   0.000   0.001   28.3    53   17.8   29.2   9.59 1.1560    117    1    100.0    5 
 4/07/15  16:35   18.7   18.7   18.4    88   16.6  16.0    SW   1.33  19.0    SW   15.9   19.3   16.5  1020.1  0.00   0.0   0.000   0.001   28.3    53   17.8   29.2   9.59 1.1557    116    1    100.0    5 
 4/07/15  16:40   18.8   18.8   18.7    87   16.6  15.0    SW   1.25  19.0    SW   16.2   19.4   16.8  1020.1  0.00   0.0   0.000   0.002   28.3    53   17.8   29.2   9.59 1.1558    116    1    100.0    5 
 4/07/15  16:45   18.8   18.8   18.7    87   16.6  15.0    SW   1.25  19.0    SW   16.2   19.4   16.8  1020.2  0.00   0.0   0.000   0.002   28.4    53   17.9   29.3   9.59 1.1556    117    1    100.0    5 
 4/07/15  16:50   18.7   18.9   18.7    86   16.3  16.0    SW   1.33  19.0    SW   15.9   19.3   16.5  1020.2  0.00   0.0   0.000   0.001   28.4    53   17.9   29.3   9.59 1.1556    117    1    100.0    5 
 4/07/15  16:55   18.8   18.9   18.7    86   16.4  15.0    SW   1.25  19.0    SW   16.2   19.3   16.8  1020.2  0.00   0.0   0.000   0.002   28.4    53   17.9   29.4   9.59 1.1553    117    1    100.0    5 
 4/07/15  17:00   18.8   18.8   18.7    86   16.4  16.0    SW   1.33  19.0    SW   16.1   19.4   16.6  1020.2  0.00   0.0   0.000   0.002   28.4    53   17.9   29.4   9.59 1.1553    116    1    100.0    5 
 4/07/15  17:05   18.8   18.9   18.8    86   16.4  16.0    SW   1.33  20.0    SW   16.1   19.4   16.6  1020.2  0.00   0.0   0.000   0.002   28.4    53   17.9   29.4   9.59 1.1553    117    1    100.0    5 
 4/07/15  17:10   18.8   18.9   18.8    85   16.2  16.0    SW   1.33  20.0    SW   16.0   19.3   16.6  1020.2  0.00   0.0   0.000   0.002   28.6    53   18.0   29.6   9.58 1.1547    117    1    100.0    5 
 4/07/15  17:15   18.6   18.8   18.6    86   16.2  16.0    SW   1.33  20.0    SW   15.8   19.1   16.3  1020.2  0.00   0.0   0.000   0.001   28.6    53   18.0   29.6   9.58 1.1547    117    1    100.0    5 
 4/07/15  17:20   18.9   18.9   18.6    85   16.3  16.0    SW   1.33  19.0    SW   16.1   19.4   16.7  1020.1  0.00   0.0   0.000   0.002   28.6    53   18.0   29.6   9.58 1.1546    117    1    100.0    5 
 4/07/15  17:25   18.8   18.9   18.7    84   16.0  16.0    SW   1.33  19.0   WSW   16.0   19.3   16.5  1020.1  0.00   0.0   0.000   0.002   28.6    52   17.8   29.6   9.38 1.1547    118    1    100.0    5 
 4/07/15  17:30   18.8   18.8   18.8    84   16.1  16.0    SW   1.33  19.0    SW   16.1   19.4   16.6  1020.1  0.00   0.0   0.000   0.002   28.6    52   17.8   29.6   9.38 1.1548    116    1    100.0    5 
 4/07/15  17:35   18.9   18.9   18.8    84   16.2  17.0    SW   1.42  20.0    SW   16.0   19.5   16.6  1020.1  0.00   0.0   0.000   0.002   28.6    52   17.8   29.6   9.38 1.1548    116    1    100.0    5 
 4/07/15  17:40   18.8   18.9   18.7    83   15.8  17.0    SW   1.42  21.0   WSW   15.8   19.3   16.3  1020.0  0.00   0.0   0.000   0.002   28.7    52   17.8   29.7   9.38 1.1544    116    1    100.0    5 
 4/07/15  17:45   18.9   19.0   18.8    82   15.8  16.0    SW   1.33  19.0    SW   16.2   19.5   16.7  1020.1  0.00   0.0   0.000   0.002   28.7    51   17.5   29.6   9.28 1.1550    117    1    100.0    5 
 4/07/15  17:50   18.6   18.9   18.6    82   15.4  17.0    SW   1.42  20.0   WSW   15.6   19.0   16.0  1020.1  0.00   0.0   0.000   0.001   28.7    51   17.5   29.6   9.28 1.1549    116    1    100.0    5 
 4/07/15  17:55   18.7   18.7   18.6    83   15.8  18.0    SW   1.50  20.0   WSW   15.6   19.2   16.1  1020.1  0.00   0.0   0.000   0.001   28.7    51   17.5   29.6   9.28 1.1550    116    1    100.0    5 
 4/07/15  18:00   19.0   19.1   18.7    83   16.0  16.0    SW   1.33  20.0    SW   16.2   19.6   16.8  1020.1  0.00   0.0   0.000   0.002   28.7    51   17.5   29.6   9.28 1.1549    117    1    100.0    5 
 4/07/15  18:05   19.0   19.1   19.0    82   15.9  16.0    SW   1.33  20.0    SW   16.2   19.6   16.8  1020.0  0.00   0.0   0.000   0.002   28.7    51   17.5   29.6   9.28 1.1548    115    1    100.0    5 
 4/07/15  18:10   19.0   19.1   18.9    82   15.9  18.0    SW   1.50  23.0   WSW   15.9   19.6   16.5  1020.0  0.00   0.0   0.000   0.002   28.7    50   17.2   29.6   9.08 1.1553    117    1    100.0    5 
 4/07/15  18:15   19.0   19.1   19.0    82   15.9  18.0    SW   1.50  21.0   WSW   15.9   19.6   16.5  1020.0  0.00   0.0   0.000   0.002   28.7    50   17.3   29.6   9.08 1.1550    117    1    100.0    5 
 4/07/15  18:20   19.1   19.2   18.9    81   15.8  17.0   WSW   1.42  22.0   WSW   16.2   19.7   16.8  1019.9  0.00   0.0   0.000   0.003   28.7    50   17.2   29.6   9.08 1.1552    116    1    100.0    5 
 4/07/15  18:25   18.9   19.1   18.9    81   15.6  19.0   WSW   1.58  21.0   WSW   15.7   19.4   16.2  1020.0  0.00   0.0   0.000   0.002   28.7    50   17.3   29.6   9.08 1.1550    117    1    100.0    5 
 4/07/15  18:30   18.9   18.9   18.8    82   15.7  18.0   WSW   1.50  21.0    SW   15.8   19.4   16.3  1019.9  0.00   0.0   0.000   0.002   28.7    49   16.9   29.4   8.88 1.1557    116    1    100.0    5 
 4/07/15  18:35   18.8   18.9   18.8    82   15.7  16.0   WSW   1.33  21.0   WSW   16.1   19.3   16.6  1019.8  0.00   0.0   0.000   0.002   28.6    49   16.8   29.3   8.88 1.1561    116    1    100.0    5 
 4/07/15  18:40   18.8   18.9   18.8    80   15.3  15.0   WSW   1.25  21.0   WSW   16.3   19.3   16.8  1019.9  0.00   0.0   0.000   0.002   28.6    50   17.1   29.3   9.08 1.1558    117    1    100.0    5 
 4/07/15  18:45   18.9   18.9   18.8    79   15.2  13.0   WSW   1.08  19.0   WSW   16.8   19.4   17.2  1019.9  0.00   0.0   0.000   0.002   28.6    49   16.8   29.4   8.88 1.1559    116    1    100.0    5 
 4/07/15  18:50   19.1   19.1   19.0    76   14.7  12.0   WSW   1.00  18.0   WSW   17.2   19.4   17.6  1019.9  0.00   0.0   0.000   0.003   28.6    49   16.8   29.4   8.88 1.1559    116    1    100.0    5 
 4/07/15  18:55   19.1   19.1   19.1    75   14.6  12.0   WSW   1.00  20.0   WSW   17.3   19.4   17.6  1019.9  0.00   0.0   0.000   0.003   28.6    49   16.8   29.4   8.88 1.1559    117    1    100.0    5 
 4/07/15  19:00   19.1   19.2   19.1    73   14.2  12.0   WSW   1.00  18.0   WSW   17.3   19.4   17.6  1019.9  0.00   0.0   0.000   0.003   28.7    49   16.9   29.4   8.88 1.1557    115    1    100.0    5 
 4/07/15  19:05   19.1   19.2   19.1    71   13.7  12.0     W   1.00  18.0   WSW   17.3   19.3   17.4  1019.9  0.00   0.0   0.000   0.003   28.7    48   16.6   29.4   8.78 1.1558    117    1    100.0    5 
 4/07/15  19:10   19.1   19.1   19.1    72   13.9  12.0     W   1.00  17.0   WSW   17.3   19.3   17.5  1019.8  0.00   0.0   0.000   0.003   28.7    48   16.6   29.4   8.78 1.1557    117    1    100.0    5 
 4/07/15  19:15   19.3   19.3   19.1    72   14.1   9.0     W   0.75  14.0     W   18.6   19.6   18.8  1019.7  0.00   0.0   0.000   0.003   28.7    48   16.6   29.4   8.78 1.1556    117    1    100.0    5 
 4/07/15  19:20   19.5   19.5   19.3    71   14.1   8.0     W   0.67  16.0   WNW   19.2   19.8   19.4  1019.8  0.00   0.0   0.000   0.004   28.7    48   16.6   29.4   8.78 1.1557    117    1    100.0    5 
 4/07/15  19:25   19.6   19.6   19.5    71   14.2   9.0     W   0.75  15.0     W   18.8   19.8   19.1  1019.8  0.00   0.0   0.000   0.004   28.8    47   16.3   29.5   8.57 1.1559    116    1    100.0    5 
 4/07/15  19:30   19.4   19.5   19.4    70   13.8   7.0     W   0.58  13.0   WNW   19.4   19.7   19.7  1019.8  0.00   0.0   0.000   0.004   28.8    48   16.7   29.6   8.77 1.1554    116    1    100.0    5 
 4/07/15  19:35   19.4   19.4   19.4    69   13.6   7.0     W   0.58  12.0     W   19.4   19.6   19.6  1019.7  0.00   0.0   0.000   0.004   28.8    48   16.7   29.6   8.77 1.1553    117    1    100.0    5 
 4/07/15  19:40   19.4   19.4   19.4    68   13.4   7.0   WSW   0.58  11.0   WSW   19.4   19.6   19.6  1019.8  0.00   0.0   0.000   0.004   28.8    47   16.4   29.6   8.57 1.1555    116    1    100.0    5 
 4/07/15  19:45   19.4   19.4   19.4    67   13.1   7.0   WSW   0.58  13.0     W   19.4   19.4   19.4  1019.8  0.00   0.0   0.000   0.004   28.8    47   16.4   29.6   8.57 1.1555    117    1    100.0    5 
 4/07/15  19:50   19.4   19.4   19.4    66   12.9   7.0   WSW   0.58  12.0   WSW   19.4   19.4   19.4  1019.7  0.00   0.0   0.000   0.004   28.8    47   16.4   29.6   8.57 1.1555    116    1    100.0    5 
 4/07/15  19:55   19.4   19.4   19.4    65   12.6   6.0     W   0.50  10.0   WSW   19.4   19.4   19.4  1019.7  0.00   0.0   0.000   0.004   28.9    47   16.4   29.7   8.57 1.1551    116    1    100.0    5 
 4/07/15  20:00   19.4   19.4   19.4    64   12.5   7.0     W   0.58  12.0   WSW   19.4   19.4   19.4  1019.7  0.00   0.0   0.000   0.004   28.9    47   16.4   29.7   8.57 1.1551    117    1    100.0    5 
 4/07/15  20:05   19.4   19.4   19.4    64   12.5   6.0   WSW   0.50  11.0     W   19.4   19.4   19.4  1019.6  0.00   0.0   0.000   0.004   28.9    47   16.4   29.7   8.57 1.1551    116    1    100.0    5 
 4/07/15  20:10   19.5   19.5   19.4    63   12.3   6.0     W   0.50  11.0     W   19.5   19.4   19.4  1019.6  0.00   0.0   0.000   0.004   28.9    47   16.4   29.7   8.57 1.1550    116    1    100.0    5 
 4/07/15  20:15   19.4   19.5   19.4    63   12.2   7.0     W   0.58  11.0   WNW   19.4   19.3   19.3  1019.5  0.00   0.0   0.000   0.004   28.9    47   16.4   29.7   8.57 1.1549    117    1    100.0    5 
 4/07/15  20:20   19.3   19.4   19.3    63   12.1   7.0     W   0.58  10.0     W   19.3   19.2   19.2  1019.6  0.00   0.0   0.000   0.003   28.9    47   16.4   29.7   8.57 1.1550    117    1    100.0    5 
 4/07/15  20:25   19.3   19.3   19.3    63   12.1   6.0     W   0.50  12.0     W   19.3   19.2   19.2  1019.4  0.00   0.0   0.000   0.003   28.9    46   16.1   29.6   8.45 1.1553    117    1    100.0    5 
 4/07/15  20:30   19.3   19.3   19.3    63   12.1   7.0     W   0.58  10.0     W   19.3   19.1   19.1  1019.5  0.00   0.0   0.000   0.003   28.9    46   16.1   29.6   8.45 1.1554    117    1    100.0    5 
 4/07/15  20:35   19.2   19.3   19.2    64   12.2   5.0     W   0.42   8.0     W   19.2   19.1   19.1  1019.4  0.00   0.0   0.000   0.003   28.9    46   16.1   29.6   8.45 1.1553    118    1    100.0    5 
 4/07/15  20:40   19.1   19.2   19.1    64   12.1   5.0   WSW   0.42   7.0   WSW   19.1   18.9   18.9  1019.4  0.00   0.0   0.000   0.003   28.9    46   16.1   29.6   8.45 1.1553    117    1    100.0    5 
 4/07/15  20:45   18.9   19.1   18.9    64   12.0   5.0   WSW   0.42   8.0     W   18.9   18.8   18.8  1019.5  0.00   0.0   0.000   0.002   28.9    46   16.1   29.6   8.45 1.1554    116    1    100.0    5 
 4/07/15  20:50   18.8   18.9   18.8    64   11.9   6.0     W   0.50   8.0   WSW   18.8   18.7   18.7  1019.4  0.00   0.0   0.000   0.002   28.8    46   16.1   29.5   8.45 1.1556    116    1    100.0    5 
 4/07/15  20:55   18.8   18.9   18.8    64   11.9   4.0     W   0.33   6.0   WSW   18.8   18.7   18.7  1019.5  0.00   0.0   0.000   0.002   28.8    46   16.1   29.5   8.45 1.1557    117    1    100.0    5 
 4/07/15  21:00   18.8   18.8   18.8    64   11.9   6.0     W   0.50   9.0   WNW   18.8   18.7   18.7  1019.4  0.00   0.0   0.000   0.002   28.8    46   16.1   29.5   8.45 1.1556    115    1    100.0    5 
 4/07/15  21:05   18.8   18.9   18.8    64   11.9   4.0   WNW   0.33   6.0    NW   18.8   18.7   18.7  1019.4  0.00   0.0   0.000   0.002   28.8    45   15.7   29.4   8.27 1.1560    117    1    100.0    5 
 4/07/15  21:10   18.8   18.8   18.8    64   11.9   4.0   WNW   0.33   7.0   WNW   18.8   18.7   18.7  1019.4  0.00   0.0   0.000   0.002   28.8    46   16.0   29.4   8.45 1.1558    117    1    100.0    5 
 4/07/15  21:15   18.7   18.8   18.7    65   12.0   3.0     W   0.25   6.0   WNW   18.7   18.6   18.6  1019.4  0.00   0.0   0.000   0.001   28.8    46   16.0   29.4   8.45 1.1558    116    1    100.0    5 
 4/07/15  21:20   18.7   18.7   18.7    65   12.0   2.0     W   0.17   4.0     W   18.7   18.6   18.6  1019.3  0.00   0.0   0.000   0.001   28.8    46   16.0   29.4   8.45 1.1558    117    1    100.0    5 
 4/07/15  21:25   18.6   18.7   18.6    66   12.1   3.0     W   0.25   5.0   WNW   18.6   18.5   18.5  1019.4  0.00   0.0   0.000   0.001   28.7    46   16.0   29.3   8.45 1.1561    117    1    100.0    5 
 4/07/15  21:30   18.5   18.6   18.5    66   12.0   3.0     W   0.25   5.0   WSW   18.5   18.4   18.4  1019.4  0.00   0.0   0.000   0.001   28.7    46   16.0   29.3   8.45 1.1561    116    1    100.0    5 
 4/07/15  21:35   18.4   18.5   18.4    67   12.2   2.0     W   0.17   4.0    NW   18.4   18.3   18.3  1019.3  0.00   0.0   0.000   0.000   28.7    46   16.0   29.3   8.45 1.1561    117    1    100.0    5 
 4/07/15  21:40   18.3   18.4   18.3    67   12.1   2.0   WNW   0.17   4.0    NW   18.3   18.2   18.2  1019.4  0.00   0.0   0.000   0.000   28.7    46   15.9   29.2   8.45 1.1564    117    1    100.0    5 
 4/07/15  21:45   18.3   18.3   18.3    68   12.3   2.0    NW   0.17   4.0   WNW   18.3   18.2   18.2  1019.5  0.00   0.0   0.000   0.000   28.7    46   15.9   29.2   8.45 1.1565    117    1    100.0    5 
 4/07/15  21:50   18.2   18.3   18.2    69   12.4   2.0   WNW   0.17   4.0   WNW   18.2   18.2   18.2  1019.5  0.00   0.0   0.000   0.000   28.7    46   15.9   29.2   8.45 1.1565    117    1    100.0    5 
 4/07/15  21:55   18.1   18.2   18.1    69   12.3   2.0    NW   0.17   5.0    NW   18.1   18.1   18.1  1019.5  0.00   0.0   0.001   0.000   28.7    46   15.9   29.2   8.45 1.1565    116    1    100.0    5 
 4/07/15  22:00   18.0   18.1   18.0    70   12.4   2.0    NW   0.17   4.0   WNW   18.0   17.9   17.9  1019.4  0.00   0.0   0.001   0.000   28.6    46   15.9   29.1   8.45 1.1567    117    1    100.0    5 
 4/07/15  22:05   17.9   18.0   17.9    70   12.3   2.0    NW   0.17   3.0    NW   17.9   17.8   17.8  1019.5  0.00   0.0   0.002   0.000   28.6    46   15.8   29.1   8.45 1.1571    117    1    100.0    5 
 4/07/15  22:10   17.8   17.9   17.8    71   12.4   2.0    NW   0.17   4.0   WNW   17.8   17.7   17.7  1019.5  0.00   0.0   0.002   0.000   28.6    46   15.8   29.1   8.45 1.1571    116    1    100.0    5 
 4/07/15  22:15   17.7   17.8   17.7    71   12.4   3.0    NW   0.25   4.0    NW   17.7   17.6   17.6  1019.4  0.00   0.0   0.002   0.000   28.6    46   15.8   29.1   8.45 1.1570    117    1    100.0    5 
 4/07/15  22:20   17.6   17.7   17.6    71   12.3   2.0    NW   0.17   3.0    NW   17.6   17.5   17.5  1019.4  0.00   0.0   0.003   0.000   28.5    46   15.8   28.9   8.45 1.1573    117    1    100.0    5 
 4/07/15  22:25   17.5   17.6   17.5    72   12.4   2.0   WNW   0.17   3.0    NW   17.5   17.4   17.4  1019.5  0.00   0.0   0.003   0.000   28.5    46   15.8   28.9   8.45 1.1574    117    1    100.0    5 
 4/07/15  22:30   17.4   17.5   17.4    72   12.3   2.0     W   0.17   4.0     W   17.4   17.3   17.3  1019.5  0.00   0.0   0.003   0.000   28.5    46   15.8   28.9   8.45 1.1574    117    1    100.0    5 
 4/07/15  22:35   17.4   17.4   17.4    72   12.3   2.0     W   0.17   4.0     W   17.4   17.3   17.3  1019.4  0.00   0.0   0.003   0.000   28.4    46   15.7   28.9   8.45 1.1576    115    1    100.0    5 
 4/07/15  22:40   17.3   17.4   17.3    73   12.4   2.0   WNW   0.17   5.0   WNW   17.3   17.3   17.3  1019.4  0.00   0.0   0.003   0.000   28.4    46   15.7   28.9   8.45 1.1576    118    1    100.0    5 
 4/07/15  22:45   17.3   17.3   17.3    73   12.4   3.0    NW   0.25   4.0    NW   17.3   17.2   17.2  1019.4  0.00   0.0   0.004   0.000   28.4    46   15.7   28.8   8.45 1.1579    116    1    100.0    5 
 4/07/15  22:50   17.2   17.3   17.2    73   12.3   3.0    NW   0.25   4.0   NNW   17.2   17.1   17.1  1019.4  0.00   0.0   0.004   0.000   28.4    46   15.7   28.8   8.45 1.1579    117    1    100.0    5 
 4/07/15  22:55   17.1   17.2   17.1    73   12.2   2.0    NW   0.17   4.0    NW   17.1   17.0   17.0  1019.4  0.00   0.0   0.004   0.000   28.4    46   15.7   28.8   8.45 1.1578    117    1    100.0    5 
 4/07/15  23:00   17.1   17.1   17.1    74   12.4   2.0   WNW   0.17   4.0    NW   17.1   16.9   16.9  1019.6  0.00   0.0   0.004   0.000   28.3    46   15.6   28.7   8.45 1.1584    116    1    100.0    5 
 4/07/15  23:05   17.0   17.1   17.0    74   12.3   3.0   WNW   0.25   4.0   WNW   17.0   16.9   16.9  1019.4  0.00   0.0   0.005   0.000   28.3    46   15.6   28.7   8.45 1.1581    117    1    100.0    5 
 4/07/15  23:10   16.9   17.0   16.9    74   12.3   3.0   WNW   0.25   5.0   WNW   16.9   16.8   16.8  1019.4  0.00   0.0   0.005   0.000   28.3    46   15.6   28.6   8.45 1.1584    117    1    100.0    5 
 4/07/15  23:15   16.9   16.9   16.9    74   12.3   3.0   WNW   0.25   5.0     W   16.9   16.8   16.8  1019.6  0.00   0.0   0.005   0.000   28.3    46   15.6   28.6   8.45 1.1586    117    1    100.0    5 
 4/07/15  23:20   16.9   16.9   16.9    74   12.2   3.0   WNW   0.25   5.0   WNW   16.9   16.8   16.8  1019.5  0.00   0.0   0.005   0.000   28.2    46   15.5   28.5   8.45 1.1588    116    1    100.0    5 
 4/07/15  23:25   16.9   16.9   16.9    74   12.2   3.0     W   0.25   6.0   WSW   16.9   16.8   16.8  1019.4  0.00   0.0   0.005   0.000   28.2    46   15.5   28.5   8.45 1.1587    117    1    100.0    5 
 4/07/15  23:30   16.9   16.9   16.8    74   12.2   4.0     W   0.33   7.0     W   16.9   16.8   16.8  1019.5  0.00   0.0   0.005   0.000   28.2    46   15.5   28.5   8.45 1.1588    117    1    100.0    5 
 4/07/15  23:35   16.9   16.9   16.8    74   12.2   3.0   WNW   0.25   6.0     W   16.9   16.8   16.8  1019.5  0.00   0.0   0.005   0.000   28.2    46   15.5   28.4   8.45 1.1590    116    1    100.0    5 
 4/07/15  23:40   16.8   16.9   16.8    74   12.2   4.0     W   0.33   6.0     W   16.8   16.7   16.7  1019.5  0.00   0.0   0.005   0.000   28.2    46   15.5   28.4   8.45 1.1590    117    1    100.0    5 
 4/07/15  23:45   16.8   16.8   16.8    74   12.2   3.0     W   0.25   5.0   WNW   16.8   16.7   16.7  1019.5  0.00   0.0   0.005   0.000   28.1    46   15.4   28.3   8.45 1.1593    118    1    100.0    5 
 4/07/15  23:50   16.8   16.8   16.8    74   12.1   3.0   WNW   0.25   5.0   WNW   16.8   16.7   16.7  1019.4  0.00   0.0   0.005   0.000   28.1    46   15.4   28.3   8.45 1.1592    117    1    100.0    5 
 4/07/15  23:55   16.8   16.8   16.8    74   12.1   4.0     W   0.33   7.0     W   16.8   16.7   16.7  1019.5  0.00   0.0   0.005   0.000   28.1    46   15.4   28.3   8.45 1.1593    117    1    100.0    5 
 5/07/15  00:00   16.8   16.8   16.8    75   12.3   4.0     W   0.33   6.0     W   16.8   16.7   16.7  1019.5  0.00   0.0   0.005   0.000   28.1    46   15.4   28.2   8.45 1.1596    117    1    100.0    5 
 5/07/15   0:05   16.8   16.8   16.8    75   12.3   4.0     W   0.33   6.0   WSW   16.8   16.7   16.7  1019.4  0.00   0.0   0.005   0.000   28.0    45   15.0   28.1   8.30 1.1602    116    1    100.0    5 
 5/07/15   0:10   16.8   16.8   16.8    76   12.5   3.0     W   0.25   5.0     W   16.8   16.7   16.7  1019.4  0.00   0.0   0.005   0.000   27.9    44   14.6   27.9   8.15 1.1610    117    1    100.0    5 
 5/07/15   0:15   16.8   16.8   16.8    76   12.5   3.0   WNW   0.25   5.0   WNW   16.8   16.7   16.7  1019.4  0.00   0.0   0.005   0.000   27.8    45   14.8   27.8   8.31 1.1611    117    1    100.0    5 
 5/07/15   0:20   16.8   16.8   16.8    76   12.5   3.0   WNW   0.25   5.0     W   16.8   16.7   16.7  1019.5  0.00   0.0   0.005   0.000   27.8    45   14.8   27.7   8.31 1.1614    116    1    100.0    5 
 5/07/15   0:25   16.7   16.8   16.7    77   12.7   4.0   WNW   0.33   6.0   WNW   16.7   16.7   16.7  1019.6  0.00   0.0   0.006   0.000   27.7    44   14.3   27.5   8.15 1.1625    116    1    100.0    5 
 5/07/15   0:30   16.7   16.7   16.7    77   12.6   4.0   WNW   0.33   5.0    NW   16.7   16.7   16.7  1019.7  0.00   0.0   0.006   0.000   27.6    44   14.2   27.4   8.15 1.1632    117    1    100.0    5 
 5/07/15   0:35   16.6   16.7   16.6    77   12.5   3.0   WNW   0.25   5.0    NW   16.6   16.5   16.5  1019.6  0.00   0.0   0.006   0.000   27.5    44   14.2   27.3   8.15 1.1634    117    1    100.0    5 
 5/07/15   0:40   16.5   16.6   16.5    77   12.5   3.0    NW   0.25   5.0    NW   16.5   16.4   16.4  1019.7  0.00   0.0   0.006   0.000   27.3    44   14.0   27.1   8.15 1.1643    115    1    100.0    5 
 5/07/15   0:45   16.4   16.5   16.4    77   12.3   4.0    NW   0.33   5.0    NW   16.4   16.3   16.3  1019.6  0.00   0.0   0.007   0.000   27.2    45   14.3   27.0   8.33 1.1643    117    1    100.0    5 
 5/07/15   0:50   16.3   16.4   16.3    77   12.2   4.0    NW   0.33   6.0   NNW   16.3   16.2   16.2  1019.6  0.00   0.0   0.007   0.000   27.1    44   13.8   26.8   8.15 1.1653    117    1    100.0    5 
 5/07/15   0:55   16.2   16.3   16.2    77   12.1   4.0    NW   0.33   5.0    NW   16.2   16.1   16.1  1019.5  0.00   0.0   0.008   0.000   26.9    45   14.0   26.7   8.34 1.1656    117    1    100.0    5 
 5/07/15   1:00   16.1   16.2   16.1    78   12.3   3.0   NNW   0.25   5.0   NNW   16.1   16.1   16.1  1019.6  0.00   0.0   0.008   0.000   26.8    45   13.9   26.6   8.34 1.1662    117    1    100.0    5 
 5/07/15   1:05   16.0   16.1   16.0    78   12.2   2.0    NW   0.17   4.0    NW   16.0   15.9   15.9  1019.7  0.00   0.0   0.008   0.000   26.7    45   13.7   26.4   8.35 1.1672    114    1    100.0    5 
 5/07/15   1:10   15.9   16.0   15.9    78   12.1   3.0    NW   0.25   4.0    NW   15.9   15.9   15.9  1019.6  0.00   0.0   0.008   0.000   26.6    46   14.0   26.4   8.45 1.1670    118    1    100.0    5 
 5/07/15   1:15   15.8   15.9   15.8    79   12.2   3.0    NW   0.25   5.0   WNW   15.8   15.8   15.8  1019.7  0.00   0.0   0.009   0.000   26.5    46   13.9   26.3   8.46 1.1677    117    1    100.0    5 
 5/07/15   1:20   15.8   15.8   15.8    79   12.1   3.0    NW   0.25   5.0    NW   15.8   15.7   15.7  1019.7  0.00   0.0   0.009   0.000   26.5    47   14.3   26.4   8.66 1.1672    117    1    100.0    5 
 5/07/15   1:25   15.8   15.8   15.8    80   12.3   3.0   WNW   0.25   5.0    NW   15.8   15.7   15.7  1019.7  0.00   0.0   0.009   0.000   26.4    47   14.2   26.3   8.66 1.1675    117    1    100.0    5 
 5/07/15   1:30   15.8   15.8   15.8    80   12.3   2.0   WNW   0.17   4.0   WNW   15.8   15.7   15.7  1019.8  0.00   0.0   0.009   0.000   26.4    47   14.2   26.3   8.66 1.1679    117    1    100.0    5 
 5/07/15   1:35   15.7   15.8   15.7    80   12.3   3.0    NW   0.25   4.0   WNW   15.7   15.7   15.7  1019.6  0.00   0.0   0.009   0.000   26.4    48   14.5   26.3   8.86 1.1673    116    1    100.0    5 
 5/07/15   1:40   15.7   15.7   15.7    80   12.2   3.0    NW   0.25   4.0    NW   15.7   15.6   15.6  1019.6  0.00   0.0   0.009   0.000   26.3    48   14.4   26.3   8.86 1.1675    117    1    100.0    5 
 5/07/15   1:45   15.6   15.7   15.6    80   12.2   2.0   NNW   0.17   3.0   NNW   15.6   15.6   15.6  1019.5  0.00   0.0   0.009   0.000   26.2    48   14.3   26.2   8.87 1.1680    117    1    100.0    5 
 5/07/15   1:50   15.5   15.6   15.5    80   12.1   2.0     N   0.17   3.0     N   15.5   15.4   15.4  1019.4  0.00   0.0   0.010   0.000   26.2    48   14.3   26.2   8.87 1.1679    117    1    100.0    5 
 5/07/15   1:55   15.4   15.5   15.4    80   12.0   1.0     N   0.08   3.0     N   15.4   15.3   15.3  1019.4  0.00   0.0   0.010   0.000   26.2    48   14.3   26.2   8.87 1.1679    117    1    100.0    5 
 5/07/15   2:00   15.3   15.4   15.3    80   11.8   2.0     N   0.17   3.0     N   15.3   15.2   15.2  1019.3  0.00   0.0   0.011   0.000   26.2    48   14.3   26.2   8.87 1.1677    117    1    100.0    5 
 5/07/15   2:05   15.2   15.3   15.2    80   11.7   1.0     N   0.08   2.0     N   15.2   15.1   15.1  1019.3  0.00   0.0   0.011   0.000   26.2    49   14.7   26.3   8.97 1.1673    116    1    100.0    5 
 5/07/15   2:10   15.1   15.2   15.1    81   11.9   0.0     N   0.00   2.0     N   15.1   15.1   15.1  1019.3  0.00   0.0   0.011   0.000   26.3    49   14.7   26.3   8.96 1.1671    114    1    100.0    5 
 5/07/15   2:15   15.1   15.1   15.1    81   11.8   0.0     N   0.00   1.0     N   15.1   14.9   14.9  1019.3  0.00   0.0   0.011   0.000   26.3    49   14.7   26.3   8.96 1.1670    118    1    100.0    5 
 5/07/15   2:20   15.1   15.1   15.0    81   11.8   1.0     N   0.08   2.0     N   15.1   14.9   14.9  1019.2  0.00   0.0   0.011   0.000   26.3    49   14.8   26.4   8.96 1.1667    116    1    100.0    5 
 5/07/15   2:25   15.0   15.0   15.0    81   11.8   1.0     N   0.08   3.0     N   15.0   14.9   14.9  1019.1  0.00   0.0   0.012   0.000   26.3    48   14.4   26.3   8.86 1.1669    117    1    100.0    5 
 5/07/15   2:30   14.9   15.0   14.9    81   11.7   1.0     N   0.08   3.0     N   14.9   14.8   14.8  1019.1  0.00   0.0   0.012   0.000   26.4    48   14.5   26.3   8.86 1.1667    117    1    100.0    5 
 5/07/15   2:35   14.9   14.9   14.9    82   11.9   1.0     N   0.08   2.0     N   14.9   14.9   14.9  1019.0  0.00   0.0   0.012   0.000   26.4    48   14.5   26.3   8.86 1.1666    116    1    100.0    5 
 5/07/15   2:40   14.9   14.9   14.9    82   11.9   0.0     N   0.00   1.0     N   14.9   14.9   14.9  1019.0  0.00   0.0   0.012   0.000   26.4    48   14.5   26.3   8.86 1.1666    117    1    100.0    5 
 5/07/15   2:45   14.9   14.9   14.9    82   11.9   1.0     N   0.08   2.0     N   14.9   14.9   14.9  1018.9  0.00   0.0   0.012   0.000   26.4    48   14.5   26.3   8.86 1.1665    117    1    100.0    5 
 5/07/15   2:50   14.9   14.9   14.9    83   12.1   2.0     N   0.17   2.0     N   14.9   14.9   14.9  1018.8  0.00   0.0   0.012   0.000   26.4    48   14.5   26.4   8.86 1.1660    117    1    100.0    5 
 5/07/15   2:55   14.9   14.9   14.9    83   12.1   1.0     N   0.08   2.0     N   14.9   14.9   14.9  1018.8  0.00   0.0   0.012   0.000   26.4    48   14.5   26.4   8.86 1.1660    117    1    100.0    5 
 5/07/15   3:00   14.9   14.9   14.9    83   12.1   1.0     N   0.08   2.0     N   14.9   14.9   14.9  1018.7  0.00   0.0   0.012   0.000   26.4    48   14.5   26.4   8.86 1.1660    117    1    100.0    5 
 5/07/15   3:05   14.9   14.9   14.9    83   12.1   2.0     N   0.17   2.0     N   14.9   14.9   14.9  1018.7  0.00   0.0   0.012   0.000   26.4    48   14.5   26.4   8.86 1.1659    116    1    100.0    5 
 5/07/15   3:10   14.9   14.9   14.9    83   12.0   2.0     N   0.17   2.0     N   14.9   14.8   14.8  1018.7  0.00   0.0   0.012   0.000   26.4    48   14.5   26.4   8.86 1.1659    117    1    100.0    5 
 5/07/15   3:15   14.8   14.9   14.8    83   12.0   1.0     N   0.08   2.0     N   14.8   14.8   14.8  1018.7  0.00   0.0   0.012   0.000   26.4    48   14.5   26.4   8.86 1.1659    117    1    100.0    5 
 5/07/15   3:20   14.8   14.8   14.8    84   12.1   1.0     N   0.08   3.0     N   14.8   14.7   14.7  1018.7  0.00   0.0   0.012   0.000   26.4    48   14.5   26.3   8.86 1.1662    117    1    100.0    5 
 5/07/15   3:25   14.8   14.8   14.8    84   12.2   2.0    NE   0.17   4.0    NE   14.8   14.8   14.8  1018.6  0.00   0.0   0.012   0.000   26.4    48   14.5   26.3   8.86 1.1660    117    1    100.0    5 
 5/07/15   3:30   14.8   14.8   14.8    85   12.3   1.0    NE   0.08   4.0    NE   14.8   14.8   14.8  1018.6  0.00   0.0   0.012   0.000   26.4    48   14.5   26.3   8.86 1.1661    117    1    100.0    5 
 5/07/15   3:35   14.8   14.8   14.8    85   12.3   1.0    NE   0.08   3.0    NE   14.8   14.8   14.8  1018.6  0.00   0.0   0.012   0.000   26.4    48   14.5   26.3   8.86 1.1660    117    1    100.0    5 
 5/07/15   3:40   14.8   14.8   14.8    85   12.3   0.0    NE   0.00   2.0    NE   14.8   14.8   14.8  1018.6  0.00   0.0   0.012   0.000   26.3    48   14.4   26.3   8.86 1.1664    117    1    100.0    5 
 5/07/15   3:45   14.9   14.9   14.8    85   12.4   2.0    NE   0.17   4.0    NE   14.9   14.9   14.9  1018.5  0.00   0.0   0.012   0.000   26.3    48   14.4   26.3   8.86 1.1663    116    1    100.0    5 
 5/07/15   3:50   14.9   14.9   14.9    85   12.4   2.0   NNE   0.17   3.0   NNE   14.9   14.9   14.9  1018.5  0.00   0.0   0.012   0.000   26.3    48   14.4   26.3   8.86 1.1663    117    1    100.0    5 
 5/07/15   3:55   14.9   14.9   14.9    86   12.6   2.0   NNE   0.17   3.0   NNE   14.9   14.9   14.9  1018.4  0.00   0.0   0.012   0.000   26.3    48   14.4   26.3   8.86 1.1664    117    1    100.0    5 
 5/07/15   4:00   15.0   15.0   14.9    86   12.7   3.0   NNE   0.25   4.0   NNE   15.0   15.0   15.0  1018.2  0.00   0.0   0.012   0.000   26.2    47   14.0   26.2   8.67 1.1668    116    1    100.0    5 
 5/07/15   4:05   15.0   15.0   15.0    86   12.7   2.0   NNE   0.17   4.0   NNE   15.0   15.0   15.0  1018.3  0.00   0.0   0.012   0.000   26.1    48   14.2   26.1   8.87 1.1671    115    1    100.0    5 
 5/07/15   4:10   15.1   15.1   15.0    86   12.7   1.0   NNE   0.08   2.0   NNE   15.1   15.1   15.1  1018.4  0.00   0.0   0.011   0.000   26.1    48   14.2   26.1   8.87 1.1672    116    1    100.0    5 
 5/07/15   4:15   15.1   15.1   15.1    86   12.7   1.0   NNE   0.08   2.0   NNE   15.1   15.1   15.1  1018.5  0.00   0.0   0.011   0.000   26.1    48   14.2   26.1   8.87 1.1676    117    1    100.0    5 
 5/07/15   4:20   15.1   15.1   15.1    86   12.8   0.0   NNE   0.00   1.0   NNE   15.1   15.2   15.2  1018.4  0.00   0.0   0.011   0.000   26.1    48   14.2   26.1   8.87 1.1672    117    1    100.0    5 
 5/07/15   4:25   15.2   15.2   15.1    86   12.8   0.0   ---   0.00   0.0   ---   15.2   15.2   15.2  1018.4  0.00   0.0   0.011   0.000   26.1    48   14.2   26.1   8.87 1.1673    116    1    100.0    5 
 5/07/15   4:30   15.2   15.2   15.2    86   12.8   0.0   NNE   0.00   2.0   NNE   15.2   15.2   15.2  1018.4  0.00   0.0   0.011   0.000   26.1    48   14.2   26.1   8.87 1.1672    117    1    100.0    5 
 5/07/15   4:35   15.2   15.2   15.2    86   12.9   0.0   NNE   0.00   1.0   NNE   15.2   15.3   15.3  1018.4  0.00   0.0   0.011   0.000   26.1    48   14.2   26.1   8.87 1.1672    117    1    100.0    5 
 5/07/15   4:40   15.3   15.3   15.2    86   12.9   0.0   NNE   0.00   1.0   NNE   15.3   15.3   15.3  1018.3  0.00   0.0   0.011   0.000   26.1    48   14.2   26.1   8.87 1.1672    117    1    100.0    5 
 5/07/15   4:45   15.3   15.3   15.2    86   12.9   0.0   NNE   0.00   1.0   NNE   15.3   15.3   15.3  1018.2  0.00   0.0   0.011   0.000   26.1    48   14.2   26.1   8.87 1.1670    117    1    100.0    5 
 5/07/15   4:50   15.3   15.3   15.3    86   12.9   1.0   NNE   0.08   2.0   NNE   15.3   15.3   15.3  1018.1  0.00   0.0   0.011   0.000   26.1    48   14.2   26.1   8.87 1.1669    117    1    100.0    5 
 5/07/15   4:55   15.3   15.3   15.3    86   12.9   1.0   NNE   0.08   2.0   NNE   15.3   15.3   15.3  1018.2  0.00   0.0   0.011   0.000   26.1    48   14.2   26.1   8.87 1.1670    116    1    100.0    5 
 5/07/15   5:00   15.3   15.3   15.3    86   12.9   1.0   NNE   0.08   2.0   NNE   15.3   15.3   15.3  1018.3  0.00   0.0   0.011   0.000   26.1    48   14.2   26.1   8.87 1.1671    117    1    100.0    5 
 5/07/15   5:05   15.3   15.3   15.3    86   12.9   1.0   NNE   0.08   2.0   NNE   15.3   15.3   15.3  1018.4  0.00   0.0   0.011   0.000   26.1    48   14.2   26.1   8.87 1.1672    117    1    100.0    5 
 5/07/15   5:10   15.3   15.3   15.3    86   12.9   1.0   NNE   0.08   2.0   NNE   15.3   15.3   15.3  1018.4  0.00   0.0   0.011   0.000   26.1    48   14.2   26.1   8.87 1.1675    117    1    100.0    5 
 5/07/15   5:15   15.3   15.3   15.3    86   13.0   1.0   NNE   0.08   2.0   NNE   15.3   15.4   15.4  1018.4  0.00   0.0   0.010   0.000   26.1    48   14.2   26.1   8.87 1.1675    117    1    100.0    5 
 5/07/15   5:20   15.3   15.3   15.3    86   13.0   1.0   NNE   0.08   2.0   NNE   15.3   15.4   15.4  1018.4  0.00   0.0   0.010   0.000   26.0    48   14.1   26.0   8.87 1.1678    116    1    100.0    5 
 5/07/15   5:25   15.3   15.3   15.3    86   13.0   1.0   NNE   0.08   2.0   NNE   15.3   15.4   15.4  1018.5  0.00   0.0   0.010   0.000   25.9    48   14.1   25.9   8.88 1.1682    117    1    100.0    5 
 5/07/15   5:30   15.3   15.3   15.3    86   13.0   1.0     N   0.08   1.0   NNE   15.3   15.4   15.4  1018.6  0.00   0.0   0.010   0.000   25.9    48   14.1   25.9   8.88 1.1683    117    1    100.0    5 
 5/07/15   5:35   15.3   15.4   15.3    85   12.8   1.0     N   0.08   2.0     N   15.3   15.4   15.4  1018.7  0.00   0.0   0.010   0.000   25.9    48   14.1   25.9   8.88 1.1684    116    1    100.0    5 
 5/07/15   5:40   15.4   15.4   15.4    85   12.9   1.0     N   0.08   2.0     N   15.4   15.5   15.5  1018.7  0.00   0.0   0.010   0.000   25.9    48   14.1   25.9   8.88 1.1684    116    1    100.0    5 
 5/07/15   5:45   15.5   15.5   15.4    85   13.0   1.0     N   0.08   2.0     N   15.5   15.6   15.6  1018.8  0.00   0.0   0.010   0.000   25.9    48   14.0   25.8   8.88 1.1688    115    1    100.0    5 
 5/07/15   5:50   15.6   15.6   15.5    85   13.0   2.0     N   0.17   3.0     N   15.6   15.6   15.6  1018.6  0.00   0.0   0.010   0.000   25.9    48   14.0   25.8   8.88 1.1686    117    1    100.0    5 
 5/07/15   5:55   15.6   15.6   15.6    85   13.1   1.0     N   0.08   3.0     N   15.6   15.7   15.7  1018.5  0.00   0.0   0.009   0.000   25.8    48   14.0   25.8   8.88 1.1688    117    1    100.0    5 
 5/07/15   6:00   15.7   15.7   15.6    85   13.2   1.0     N   0.08   3.0     N   15.7   15.7   15.7  1018.5  0.00   0.0   0.009   0.000   25.8    48   14.0   25.8   8.88 1.1687    117    1    100.0    5 
 5/07/15   6:05   15.7   15.7   15.7    85   13.2   2.0     N   0.17   3.0     N   15.7   15.8   15.8  1018.5  0.00   0.0   0.009   0.000   25.8    48   13.9   25.7   8.88 1.1690    117    1    100.0    5 
 5/07/15   6:10   15.8   15.8   15.7    85   13.3   2.0     N   0.17   3.0     N   15.8   15.8   15.8  1018.4  0.00   0.0   0.009   0.000   25.7    48   13.9   25.7   8.88 1.1691    117    1    100.0    5 
 5/07/15   6:15   15.9   15.9   15.8    85   13.4   1.0     N   0.08   2.0     N   15.9   16.0   16.0  1018.3  0.00   0.0   0.008   0.000   25.7    49   14.2   25.7   8.99 1.1690    116    1    100.0    5 
 5/07/15   6:20   15.9   15.9   15.9    85   13.4   0.0     N   0.00   1.0     N   15.9   16.1   16.1  1018.5  0.00   0.0   0.008   0.000   25.7    49   14.2   25.7   8.99 1.1692    117    1    100.0    5 
 5/07/15   6:25   16.1   16.1   15.9    85   13.5   0.0     N   0.00   1.0     N   16.1   16.2   16.2  1018.3  0.00   0.0   0.008   0.000   25.7    49   14.2   25.7   8.99 1.1690    115    1    100.0    5 
 5/07/15   6:30   16.2   16.2   16.1    86   13.8   1.0     N   0.08   1.0     N   16.2   16.3   16.3  1018.1  0.00   0.0   0.008   0.000   25.7    49   14.2   25.7   8.99 1.1688    118    1    100.0    5 
 5/07/15   6:35   16.3   16.3   16.2    86   13.9   1.0     N   0.08   2.0     N   16.3   16.4   16.4  1017.9  0.00   0.0   0.007   0.000   25.7    49   14.2   25.7   8.99 1.1684    116    1    100.0    5 
 5/07/15   6:40   16.3   16.4   16.3    85   13.8   1.0     N   0.08   2.0     N   16.3   16.4   16.4  1017.6  0.00   0.0   0.007   0.000   25.7    49   14.2   25.7   8.99 1.1682    117    1    100.0    5 
 5/07/15   6:45   16.5   16.5   16.4    86   14.1   2.0   ENE   0.17   3.0   NNE   16.5   16.7   16.7  1017.5  0.00   0.0   0.006   0.000   25.6    49   14.1   25.6   8.99 1.1683    117    1    100.0    5 
 5/07/15   6:50   16.8   16.8   16.5    87   14.6   3.0    SE   0.25   5.0    SE   16.8   17.0   17.0  1017.5  0.00   0.0   0.005   0.000   25.6    50   14.4   25.6   9.19 1.1680    117    1    100.0    5 
 5/07/15   6:55   17.2   17.2   16.8    87   15.0   5.0    SE   0.42   7.0    SE   17.2   17.6   17.6  1017.5  0.00   0.0   0.004   0.000   25.6    51   14.7   25.7   9.35 1.1676    117    1    100.0    5 
77046